Time,TemperatureF,DewpointF,PressureIn,WindDirection,WindDirectionDegrees,WindSpeedMPH,WindSpeedGustMPH,Humidity,HourlyPrecipIn,Conditions,Clouds,dailyrainin,SoftwareType,DateUTC
2013-03-19 00:00:00,36.6,33.7,29.92,WSW,255,0.0,0.0,89,0.00,,,0.80,Wunderground v.1.15,2013-03-19 04:00:00,
2013-03-19 00:03:00,36.6,33.9,29.92,WSW,255,0.0,0.0,90,0.00,,,0.00,Wunderground v.1.15,2013-03-19 04:03:00,
2013-03-19 00:05:00,36.6,33.9,29.92,WSW,255,0.0,0.0,90,0.00,,,0.00,Wunderground v.1.15,2013-03-19 04:05:00,
2013-03-19 00:08:00,36.6,33.9,29.92,WSW,255,2.0,2.0,90,0.00,,,0.00,Wunderground v.1.15,2013-03-19 04:08:00,
2013-03-19 00:10:00,36.6,34.2,29.92,WSW,255,0.0,1.0,91,0.00,,,0.00,Wunderground v.1.15,2013-03-19 04:10:00,
2013-03-19 00:13:00,36.5,34.1,29.92,WSW,255,0.0,2.0,91,0.00,,,0.00,Wunderground v.1.15,2013-03-19 04:13:00,
2013-03-19 00:15:00,36.5,34.1,29.92,WSW,255,0.0,2.0,91,0.00,,,0.00,Wunderground v.1.15,2013-03-19 04:15:00,
2013-03-19 00:16:00,36.5,34.1,29.92,WSW,255,0.0,2.0,91,0.00,,,0.00,Wunderground v.1.15,2013-03-19 04:16:00,
2013-03-19 00:21:00,36.3,33.9,29.93,WSW,255,0.0,1.0,91,0.00,,,0.00,Wunderground v.1.15,2013-03-19 04:21:00,
2013-03-19 00:22:00,36.3,33.9,29.93,WSW,255,0.0,1.0,91,0.00,,,0.00,Wunderground v.1.15,2013-03-19 04:22:00,
2013-03-19 00:23:00,36.2,33.8,29.93,WSW,255,0.0,1.0,91,0.00,,,0.00,Wunderground v.1.15,2013-03-19 04:23:00,
2013-03-19 00:27:00,36.1,33.7,29.93,WSW,253,2.0,2.0,91,0.00,,,0.00,Wunderground v.1.15,2013-03-19 04:27:00,
2013-03-19 00:29:00,36.1,33.7,29.92,WSW,249,4.0,4.0,91,0.00,,,0.00,Wunderground v.1.15,2013-03-19 04:29:00,
2013-03-19 00:34:00,36.2,33.8,29.93,SW,222,3.0,3.0,91,0.00,,,0.00,Wunderground v.1.15,2013-03-19 04:34:00,
2013-03-19 00:39:00,36.3,34.2,29.92,SW,221,3.0,4.0,92,0.00,,,0.00,Wunderground v.1.15,2013-03-19 04:39:00,
2013-03-19 00:42:00,36.3,34.2,29.93,SW,226,3.0,3.0,92,0.00,,,0.00,Wunderground v.1.15,2013-03-19 04:42:00,
2013-03-19 00:43:00,36.4,34.3,29.93,SW,226,0.0,3.0,92,0.00,,,0.00,Wunderground v.1.15,2013-03-19 04:43:00,
2013-03-19 00:48:00,36.6,34.5,29.93,WSW,239,4.0,4.0,92,0.00,,,0.00,Wunderground v.1.15,2013-03-19 04:48:00,
2013-03-19 00:49:00,36.7,34.6,29.93,WSW,238,1.0,4.0,92,0.00,,,0.00,Wunderground v.1.15,2013-03-19 04:49:00,
2013-03-19 00:51:00,36.7,34.6,29.93,WSW,247,3.0,5.0,92,0.00,,,0.00,Wunderground v.1.15,2013-03-19 04:51:00,
2013-03-19 00:54:00,36.8,34.7,29.93,SW,233,4.0,5.0,92,0.00,,,0.00,Wunderground v.1.15,2013-03-19 04:54:00,
2013-03-19 00:57:00,36.8,34.7,29.93,WSW,241,2.0,5.0,92,0.00,,,0.00,Wunderground v.1.15,2013-03-19 04:57:00,
2013-03-19 00:58:00,36.9,34.8,29.93,WSW,241,2.0,5.0,92,0.00,,,0.00,Wunderground v.1.15,2013-03-19 04:58:00,
2013-03-19 00:59:00,36.9,34.8,29.93,WSW,242,4.0,5.0,92,0.00,,,0.00,Wunderground v.1.15,2013-03-19 04:59:00,
2013-03-19 01:00:00,36.9,34.8,29.93,WSW,242,1.0,3.0,92,0.00,,,0.00,Wunderground v.1.15,2013-03-19 05:00:00,
2013-03-19 01:04:00,36.9,34.8,29.93,WSW,249,5.0,6.0,92,0.00,,,0.00,Wunderground v.1.15,2013-03-19 05:04:00,
2013-03-19 01:06:00,37.0,34.9,29.93,WSW,251,5.0,6.0,92,0.00,,,0.00,Wunderground v.1.15,2013-03-19 05:06:00,
2013-03-19 01:07:00,37.0,34.9,29.93,WSW,251,3.0,6.0,92,0.00,,,0.00,Wunderground v.1.15,2013-03-19 05:07:00,
2013-03-19 01:08:00,37.1,35.0,29.93,WSW,249,3.0,6.0,92,0.00,,,0.00,Wunderground v.1.15,2013-03-19 05:08:00,
2013-03-19 01:09:00,37.1,35.0,29.93,WSW,257,5.0,6.0,92,0.00,,,0.00,Wunderground v.1.15,2013-03-19 05:09:00,
2013-03-19 01:12:00,37.1,34.7,29.93,West,259,1.0,4.0,91,0.00,,,0.00,Wunderground v.1.15,2013-03-19 05:12:00,
2013-03-19 01:14:00,37.2,34.8,29.93,WSW,257,4.0,6.0,91,0.00,,,0.00,Wunderground v.1.15,2013-03-19 05:14:00,
2013-03-19 01:17:00,37.2,34.8,29.93,WSW,257,3.0,6.0,91,0.00,,,0.00,Wunderground v.1.15,2013-03-19 05:17:00,
2013-03-19 01:22:00,37.3,34.9,29.93,West,263,2.0,4.0,91,0.00,,,0.00,Wunderground v.1.15,2013-03-19 05:22:00,
2013-03-19 01:23:00,37.3,34.9,29.94,West,260,4.0,4.0,91,0.00,,,0.00,Wunderground v.1.15,2013-03-19 05:23:00,
2013-03-19 01:24:00,37.4,35.0,29.94,West,261,2.0,4.0,91,0.00,,,0.00,Wunderground v.1.15,2013-03-19 05:24:00,
2013-03-19 01:28:00,37.4,35.0,29.94,WSW,251,4.0,4.0,91,0.00,,,0.00,Wunderground v.1.15,2013-03-19 05:28:00,
2013-03-19 01:29:00,37.4,35.0,29.94,WSW,251,2.0,4.0,91,0.00,,,0.00,Wunderground v.1.15,2013-03-19 05:29:00,
2013-03-19 01:31:00,37.4,35.0,29.94,WSW,252,3.0,5.0,91,0.00,,,0.00,Wunderground v.1.15,2013-03-19 05:31:00,
2013-03-19 01:36:00,37.4,35.0,29.94,WSW,256,3.0,6.0,91,0.00,,,0.00,Wunderground v.1.15,2013-03-19 05:36:00,
2013-03-19 01:37:00,37.4,35.0,29.95,WSW,257,4.0,6.0,91,0.00,,,0.00,Wunderground v.1.15,2013-03-19 05:37:00,
2013-03-19 01:42:00,37.4,34.7,29.95,West,263,3.0,4.0,90,0.00,,,0.00,Wunderground v.1.15,2013-03-19 05:42:00,
2013-03-19 01:43:00,37.4,34.7,29.95,West,263,5.0,5.0,90,0.00,,,0.00,Wunderground v.1.15,2013-03-19 05:43:00,
2013-03-19 01:46:00,37.3,34.6,29.95,West,259,6.0,6.0,90,0.00,,,0.00,Wunderground v.1.15,2013-03-19 05:46:00,
2013-03-19 01:48:00,37.2,34.8,29.95,WSW,258,5.0,6.0,91,0.00,,,0.00,Wunderground v.1.15,2013-03-19 05:48:00,
2013-03-19 01:50:00,37.3,34.9,29.95,WSW,253,2.0,4.0,91,0.00,,,0.00,Wunderground v.1.15,2013-03-19 05:50:00,
2013-03-19 01:53:00,37.3,34.9,29.95,WSW,253,4.0,4.0,91,0.00,,,0.00,Wunderground v.1.15,2013-03-19 05:53:00,
2013-03-19 01:55:00,37.4,35.0,29.95,WSW,253,5.0,5.0,91,0.00,,,0.00,Wunderground v.1.15,2013-03-19 05:55:00,
2013-03-19 02:00:00,37.4,35.0,29.95,WSW,249,2.0,3.0,91,0.00,,,0.00,Wunderground v.1.15,2013-03-19 06:00:00,
2013-03-19 02:05:00,37.4,34.7,29.95,WSW,248,4.0,6.0,90,0.00,,,0.00,Wunderground v.1.15,2013-03-19 06:05:00,
2013-03-19 02:10:00,37.3,34.6,29.95,WSW,244,5.0,5.0,90,0.00,,,0.00,Wunderground v.1.15,2013-03-19 06:10:00,
2013-03-19 02:15:00,37.3,34.6,29.96,WSW,251,4.0,10.0,90,0.00,,,0.00,Wunderground v.1.15,2013-03-19 06:15:00,
2013-03-19 02:20:00,37.5,34.8,29.96,WSW,253,6.0,6.0,90,0.00,,,0.00,Wunderground v.1.15,2013-03-19 06:20:00,
2013-03-19 02:25:00,37.6,34.9,29.96,West,261,4.0,10.0,90,0.00,,,0.00,Wunderground v.1.15,2013-03-19 06:25:00,
2013-03-19 02:30:00,37.7,34.8,29.96,West,261,2.0,5.0,89,0.00,,,0.00,Wunderground v.1.15,2013-03-19 06:30:00,
2013-03-19 02:31:00,37.7,34.8,29.96,West,261,2.0,5.0,89,0.00,,,0.00,Wunderground v.1.15,2013-03-19 06:31:00,
2013-03-19 02:35:00,37.7,34.8,29.97,WSW,257,7.0,7.0,89,0.00,,,0.00,Wunderground v.1.15,2013-03-19 06:35:00,
2013-03-19 02:36:00,37.8,34.8,29.97,West,261,4.0,7.0,89,0.00,,,0.00,Wunderground v.1.15,2013-03-19 06:36:00,
2013-03-19 02:40:00,37.8,34.8,29.97,West,261,1.0,3.0,89,0.00,,,0.00,Wunderground v.1.15,2013-03-19 06:40:00,
2013-03-19 02:41:00,37.8,34.8,29.97,West,261,1.0,3.0,89,0.00,,,0.00,Wunderground v.1.15,2013-03-19 06:41:00,
2013-03-19 02:42:00,37.7,34.8,29.97,West,261,2.0,3.0,89,0.00,,,0.00,Wunderground v.1.15,2013-03-19 06:42:00,
2013-03-19 02:45:00,37.5,34.3,29.98,West,265,3.0,6.0,88,0.00,,,0.00,Wunderground v.1.15,2013-03-19 06:45:00,
2013-03-19 02:46:00,37.5,34.3,29.98,West,265,1.0,6.0,88,0.00,,,0.00,Wunderground v.1.15,2013-03-19 06:46:00,
2013-03-19 02:47:00,37.5,34.3,29.98,West,273,3.0,7.0,88,0.00,,,0.00,Wunderground v.1.15,2013-03-19 06:47:00,
2013-03-19 02:51:00,37.6,34.7,29.98,West,268,6.0,6.0,89,0.00,,,0.00,Wunderground v.1.15,2013-03-19 06:51:00,
2013-03-19 02:52:00,37.6,34.7,29.98,West,267,2.0,6.0,89,0.00,,,0.00,Wunderground v.1.15,2013-03-19 06:52:00,
2013-03-19 02:56:00,37.6,34.4,29.98,West,267,3.0,6.0,88,0.00,,,0.00,Wunderground v.1.15,2013-03-19 06:56:00,
2013-03-19 02:57:00,37.6,34.4,29.98,West,267,1.0,6.0,88,0.00,,,0.00,Wunderground v.1.15,2013-03-19 06:57:00,
2013-03-19 03:02:00,37.7,34.8,29.98,West,275,4.0,11.0,89,0.00,,,0.00,Wunderground v.1.15,2013-03-19 07:02:00,
2013-03-19 03:03:00,37.7,34.8,29.99,West,274,4.0,11.0,89,0.00,,,0.00,Wunderground v.1.15,2013-03-19 07:03:00,
2013-03-19 03:07:00,38.0,34.8,29.99,West,261,2.0,12.0,88,0.00,,,0.00,Wunderground v.1.15,2013-03-19 07:07:00,
2013-03-19 03:08:00,38.0,34.8,29.99,West,263,4.0,12.0,88,0.00,,,0.00,Wunderground v.1.15,2013-03-19 07:08:00,
2013-03-19 03:12:00,38.4,35.2,29.99,West,278,5.0,10.0,88,0.00,,,0.00,Wunderground v.1.15,2013-03-19 07:12:00,
2013-03-19 03:13:00,38.4,35.2,29.99,West,262,8.0,10.0,88,0.00,,,0.00,Wunderground v.1.15,2013-03-19 07:13:00,
2013-03-19 03:17:00,38.7,35.2,29.99,West,271,2.0,12.0,87,0.00,,,0.00,Wunderground v.1.15,2013-03-19 07:17:00,
2013-03-19 03:18:00,38.6,35.1,29.99,West,271,2.0,12.0,87,0.00,,,0.00,Wunderground v.1.15,2013-03-19 07:18:00,
2013-03-19 03:23:00,38.6,35.1,29.99,West,267,4.0,6.0,87,0.00,,,0.00,Wunderground v.1.15,2013-03-19 07:23:00,
2013-03-19 03:28:00,38.4,34.6,29.99,West,267,5.0,6.0,86,0.00,,,0.00,Wunderground v.1.15,2013-03-19 07:28:00,
2013-03-19 03:29:00,38.4,34.6,29.99,WNW,288,2.0,7.0,86,0.00,,,0.00,Wunderground v.1.15,2013-03-19 07:29:00,
2013-03-19 03:33:00,38.2,34.7,29.99,West,275,0.0,6.0,87,0.00,,,0.00,Wunderground v.1.15,2013-03-19 07:33:00,
2013-03-19 03:34:00,38.1,34.6,29.99,West,275,0.0,6.0,87,0.00,,,0.00,Wunderground v.1.15,2013-03-19 07:34:00,
2013-03-19 03:38:00,38.0,34.5,29.99,West,264,2.0,10.0,87,0.00,,,0.00,Wunderground v.1.15,2013-03-19 07:38:00,
2013-03-19 03:39:00,38.0,34.5,29.99,West,278,3.0,10.0,87,0.00,,,0.00,Wunderground v.1.15,2013-03-19 07:39:00,
2013-03-19 03:43:00,37.8,34.3,29.99,WNW,287,0.0,6.0,87,0.00,,,0.00,Wunderground v.1.15,2013-03-19 07:43:00,
2013-03-19 03:44:00,37.8,34.3,29.99,WNW,282,6.0,6.0,87,0.00,,,0.00,Wunderground v.1.15,2013-03-19 07:44:00,
2013-03-19 03:48:00,37.7,34.2,29.99,West,275,1.0,7.0,87,0.00,,,0.00,Wunderground v.1.15,2013-03-19 07:48:00,
2013-03-19 03:49:00,37.6,34.1,30.00,West,275,0.0,7.0,87,0.00,,,0.00,Wunderground v.1.15,2013-03-19 07:49:00,
2013-03-19 03:53:00,37.4,33.9,30.00,West,278,4.0,5.0,87,0.00,,,0.00,Wunderground v.1.15,2013-03-19 07:53:00,
2013-03-19 03:54:00,37.4,33.9,30.00,West,278,3.0,5.0,87,0.00,,,0.00,Wunderground v.1.15,2013-03-19 07:54:00,
2013-03-19 03:55:00,37.3,33.8,30.00,West,278,0.0,5.0,87,0.00,,,0.00,Wunderground v.1.15,2013-03-19 07:55:00,
2013-03-19 03:59:00,37.1,33.9,30.00,West,276,2.0,6.0,88,0.00,,,0.00,Wunderground v.1.15,2013-03-19 07:59:00,
2013-03-19 04:00:00,37.1,33.9,30.00,WNW,284,6.0,7.0,88,0.00,,,0.00,Wunderground v.1.15,2013-03-19 08:00:00,
2013-03-19 04:04:00,37.0,33.8,30.00,WNW,282,2.0,7.0,88,0.00,,,0.00,Wunderground v.1.15,2013-03-19 08:04:00,
2013-03-19 04:05:00,36.9,33.7,30.00,WNW,282,3.0,7.0,88,0.00,,,0.00,Wunderground v.1.15,2013-03-19 08:05:00,
2013-03-19 04:09:00,36.7,33.2,30.00,WNW,285,0.0,7.0,87,0.00,,,0.00,Wunderground v.1.15,2013-03-19 08:09:00,
2013-03-19 04:10:00,36.6,33.4,30.00,WNW,283,4.0,7.0,88,0.00,,,0.00,Wunderground v.1.15,2013-03-19 08:10:00,
2013-03-19 04:14:00,36.4,33.2,30.00,WNW,285,0.0,4.0,88,0.00,,,0.00,Wunderground v.1.15,2013-03-19 08:14:00,
2013-03-19 04:15:00,36.4,33.2,30.00,WNW,285,0.0,4.0,88,0.00,,,0.00,Wunderground v.1.15,2013-03-19 08:15:00,
2013-03-19 04:19:00,36.2,33.0,30.00,NW,318,7.0,10.0,88,0.00,,,0.00,Wunderground v.1.15,2013-03-19 08:19:00,
2013-03-19 04:20:00,36.3,33.1,30.00,WNW,290,3.0,6.0,88,0.00,,,0.00,Wunderground v.1.15,2013-03-19 08:20:00,
2013-03-19 04:24:00,36.2,33.0,30.00,NW,323,3.0,7.0,88,0.00,,,0.00,Wunderground v.1.15,2013-03-19 08:24:00,
2013-03-19 04:25:00,36.3,33.1,30.00,NW,322,0.0,7.0,88,0.00,,,0.00,Wunderground v.1.15,2013-03-19 08:25:00,
2013-03-19 04:30:00,36.3,33.1,30.00,NW,309,4.0,7.0,88,0.00,,,0.00,Wunderground v.1.15,2013-03-19 08:30:00,
2013-03-19 04:35:00,36.3,33.1,30.00,WNW,291,7.0,14.0,88,0.00,,,0.00,Wunderground v.1.15,2013-03-19 08:35:00,
2013-03-19 04:40:00,36.1,32.6,30.01,NNW,345,2.0,3.0,87,0.00,,,0.00,Wunderground v.1.15,2013-03-19 08:40:00,
2013-03-19 04:41:00,36.0,31.9,30.01,NW,326,8.0,9.0,85,0.00,,,0.00,Wunderground v.1.15,2013-03-19 08:41:00,
2013-03-19 04:45:00,35.6,29.7,30.00,NW,317,6.0,12.0,79,0.00,,,0.00,Wunderground v.1.15,2013-03-19 08:45:00,
2013-03-19 04:46:00,35.5,29.6,30.00,WNW,288,9.0,12.0,79,0.00,,,0.00,Wunderground v.1.15,2013-03-19 08:46:00,
2013-03-19 04:50:00,35.2,29.0,30.00,WNW,299,0.0,4.0,78,0.00,,,0.00,Wunderground v.1.15,2013-03-19 08:50:00,
2013-03-19 04:51:00,35.2,29.0,30.00,WNW,284,3.0,4.0,78,0.00,,,0.00,Wunderground v.1.15,2013-03-19 08:51:00,
2013-03-19 04:55:00,34.9,28.4,30.00,WNW,294,4.0,11.0,77,0.00,,,0.00,Wunderground v.1.15,2013-03-19 08:55:00,
2013-03-19 04:56:00,34.9,28.1,30.00,WNW,299,6.0,11.0,76,0.00,,,0.00,Wunderground v.1.15,2013-03-19 08:56:00,
2013-03-19 05:00:00,34.7,27.9,30.00,NW,325,3.0,4.0,76,0.00,,,0.00,Wunderground v.1.15,2013-03-19 09:00:00,
2013-03-19 05:01:00,34.7,27.9,30.00,NW,323,3.0,4.0,76,0.00,,,0.00,Wunderground v.1.15,2013-03-19 09:01:00,
2013-03-19 05:02:00,34.6,27.8,30.00,NW,325,4.0,4.0,76,0.00,,,0.00,Wunderground v.1.15,2013-03-19 09:02:00,
2013-03-19 05:05:00,34.4,27.3,30.00,WNW,283,3.0,12.0,75,0.00,,,0.00,Wunderground v.1.15,2013-03-19 09:05:00,
2013-03-19 05:06:00,34.4,27.6,30.00,WSW,251,5.0,12.0,76,0.00,,,0.00,Wunderground v.1.15,2013-03-19 09:06:00,
2013-03-19 05:07:00,34.4,27.6,30.00,West,259,2.0,12.0,76,0.00,,,0.00,Wunderground v.1.15,2013-03-19 09:07:00,
2013-03-19 05:11:00,34.4,27.6,30.00,WNW,287,3.0,3.0,76,0.00,,,0.00,Wunderground v.1.15,2013-03-19 09:11:00,
2013-03-19 05:12:00,34.4,27.6,30.00,NW,306,4.0,6.0,76,0.00,,,0.00,Wunderground v.1.15,2013-03-19 09:12:00,
2013-03-19 05:16:00,34.1,27.3,30.00,NW,321,3.0,12.0,76,0.00,,,0.00,Wunderground v.1.15,2013-03-19 09:16:00,
2013-03-19 05:17:00,34.0,27.2,30.00,NW,321,2.0,12.0,76,0.00,,,0.00,Wunderground v.1.15,2013-03-19 09:17:00,
2013-03-19 05:21:00,33.8,27.0,30.01,WNW,297,1.0,4.0,76,0.00,,,0.00,Wunderground v.1.15,2013-03-19 09:21:00,
2013-03-19 05:22:00,33.7,26.9,30.01,WNW,297,0.0,4.0,76,0.00,,,0.00,Wunderground v.1.15,2013-03-19 09:22:00,
2013-03-19 05:27:00,33.4,26.6,30.01,West,262,4.0,5.0,76,0.00,,,0.00,Wunderground v.1.15,2013-03-19 09:27:00,
2013-03-19 05:28:00,33.3,26.5,30.01,WSW,249,1.0,5.0,76,0.00,,,0.00,Wunderground v.1.15,2013-03-19 09:28:00,
2013-03-19 05:32:00,33.2,26.5,30.01,WNW,300,0.0,3.0,76,0.00,,,0.00,Wunderground v.1.15,2013-03-19 09:32:00,
2013-03-19 05:33:00,33.2,26.8,30.02,WNW,298,4.0,4.0,77,0.00,,,0.00,Wunderground v.1.15,2013-03-19 09:33:00,
2013-03-19 05:37:00,33.0,26.6,30.02,NNW,340,0.0,5.0,77,0.00,,,0.00,Wunderground v.1.15,2013-03-19 09:37:00,
2013-03-19 05:38:00,33.0,26.6,30.02,NNW,340,0.0,5.0,77,0.00,,,0.00,Wunderground v.1.15,2013-03-19 09:38:00,
2013-03-19 05:42:00,32.8,26.4,30.02,NW,326,2.0,5.0,77,0.00,,,0.00,Wunderground v.1.15,2013-03-19 09:42:00,
2013-03-19 05:43:00,32.8,26.4,30.02,NW,326,2.0,5.0,77,0.00,,,0.00,Wunderground v.1.15,2013-03-19 09:43:00,
2013-03-19 05:48:00,32.5,26.4,30.03,NNW,329,4.0,5.0,78,0.00,,,0.00,Wunderground v.1.15,2013-03-19 09:48:00,
2013-03-19 05:53:00,32.4,26.0,30.03,West,279,6.0,9.0,77,0.00,,,0.00,Wunderground v.1.15,2013-03-19 09:53:00,
2013-03-19 05:58:00,32.5,26.1,30.03,NNW,329,5.0,9.0,77,0.00,,,0.00,Wunderground v.1.15,2013-03-19 09:58:00,
2013-03-19 05:59:00,32.5,26.1,30.03,West,268,3.0,9.0,77,0.00,,,0.00,Wunderground v.1.15,2013-03-19 09:59:00,
2013-03-19 06:03:00,32.5,26.1,30.03,NW,321,0.0,9.0,77,0.00,,,0.00,Wunderground v.1.15,2013-03-19 10:03:00,
2013-03-19 06:04:00,32.4,26.0,30.03,NW,321,0.0,9.0,77,0.00,,,0.00,Wunderground v.1.15,2013-03-19 10:04:00,
2013-03-19 06:08:00,32.4,26.0,30.03,NNW,337,4.0,9.0,77,0.00,,,0.00,Wunderground v.1.15,2013-03-19 10:08:00,
2013-03-19 06:09:00,32.3,25.9,30.03,WNW,296,8.0,9.0,77,0.00,,,0.00,Wunderground v.1.15,2013-03-19 10:09:00,
2013-03-19 06:13:00,32.2,25.8,30.04,NW,307,4.0,6.0,77,0.00,,,0.00,Wunderground v.1.15,2013-03-19 10:13:00,
2013-03-19 06:14:00,32.2,25.8,30.04,NW,307,2.0,6.0,77,0.00,,,0.00,Wunderground v.1.15,2013-03-19 10:14:00,
2013-03-19 06:18:00,32.1,25.7,30.04,West,281,1.0,6.0,77,0.00,,,0.00,Wunderground v.1.15,2013-03-19 10:18:00,
2013-03-19 06:19:00,32.0,25.6,30.04,West,281,0.0,6.0,77,0.00,,,0.00,Wunderground v.1.15,2013-03-19 10:19:00,
2013-03-19 06:23:00,31.9,25.8,30.04,WNW,282,2.0,6.0,78,0.00,,,0.00,Wunderground v.1.15,2013-03-19 10:23:00,
2013-03-19 06:24:00,31.9,25.8,30.04,NNW,338,4.0,6.0,78,0.00,,,0.00,Wunderground v.1.15,2013-03-19 10:24:00,
2013-03-19 06:28:00,31.7,25.6,30.04,NW,310,0.0,6.0,78,0.00,,,0.00,Wunderground v.1.15,2013-03-19 10:28:00,
2013-03-19 06:29:00,31.7,25.6,30.04,NW,310,1.0,6.0,78,0.00,,,0.00,Wunderground v.1.15,2013-03-19 10:29:00,
2013-03-19 06:30:00,31.7,25.6,30.04,NW,314,1.0,2.0,78,0.00,,,0.00,Wunderground v.1.15,2013-03-19 10:30:00,
2013-03-19 06:33:00,31.6,25.5,30.04,NW,326,0.0,10.0,78,0.00,,,0.00,Wunderground v.1.15,2013-03-19 10:33:00,
2013-03-19 06:34:00,31.7,25.6,30.04,NW,326,1.0,10.0,78,0.00,,,0.00,Wunderground v.1.15,2013-03-19 10:34:00,
2013-03-19 06:35:00,31.6,25.8,30.04,NW,326,0.0,10.0,79,0.00,,,0.00,Wunderground v.1.15,2013-03-19 10:35:00,
2013-03-19 06:38:00,31.5,25.7,30.03,WNW,299,3.0,10.0,79,0.00,,,0.00,Wunderground v.1.15,2013-03-19 10:38:00,
2013-03-19 06:39:00,31.5,25.7,30.04,WNW,291,4.0,10.0,79,0.00,,,0.00,Wunderground v.1.15,2013-03-19 10:39:00,
2013-03-19 06:40:00,31.5,25.7,30.04,WNW,301,4.0,4.0,79,0.00,,,0.00,Wunderground v.1.15,2013-03-19 10:40:00,
2013-03-19 06:43:00,31.3,25.5,30.04,WNW,303,0.0,4.0,79,0.00,,,0.00,Wunderground v.1.15,2013-03-19 10:43:00,
2013-03-19 06:45:00,31.3,25.5,30.04,NW,304,0.0,4.0,79,0.00,,,0.00,Wunderground v.1.15,2013-03-19 10:45:00,
2013-03-19 06:49:00,31.1,25.3,30.03,NW,307,2.0,4.0,79,0.00,,,0.00,Wunderground v.1.15,2013-03-19 10:49:00,
2013-03-19 06:50:00,31.1,25.3,30.03,NW,307,0.0,4.0,79,0.00,,,0.00,Wunderground v.1.15,2013-03-19 10:50:00,
2013-03-19 06:54:00,31.0,25.2,30.04,NW,307,0.0,3.0,79,0.00,,,0.00,Wunderground v.1.15,2013-03-19 10:54:00,
2013-03-19 06:55:00,30.9,25.2,30.04,NW,307,0.0,3.0,79,0.00,,,0.00,Wunderground v.1.15,2013-03-19 10:55:00,
2013-03-19 06:56:00,30.9,25.2,30.03,NW,307,0.0,3.0,79,0.00,,,0.00,Wunderground v.1.15,2013-03-19 10:56:00,
2013-03-19 06:59:00,30.8,25.4,30.03,NW,307,0.0,3.0,80,0.00,,,0.00,Wunderground v.1.15,2013-03-19 10:59:00,
2013-03-19 07:00:00,30.8,25.4,30.03,NW,306,0.0,3.0,80,0.00,,,0.00,Wunderground v.1.15,2013-03-19 11:00:00,
2013-03-19 07:02:00,30.7,25.3,30.04,NW,307,0.0,0.0,80,0.00,,,0.00,Wunderground v.1.15,2013-03-19 11:02:00,
2013-03-19 07:04:00,30.6,25.2,30.04,NW,306,0.0,0.0,80,0.00,,,0.00,Wunderground v.1.15,2013-03-19 11:04:00,
2013-03-19 07:05:00,30.5,25.1,30.04,NW,306,0.0,0.0,80,0.00,,,0.00,Wunderground v.1.15,2013-03-19 11:05:00,
2013-03-19 07:07:00,30.5,25.4,30.04,WNW,303,2.0,4.0,81,0.00,,,0.00,Wunderground v.1.15,2013-03-19 11:07:00,
2013-03-19 07:09:00,30.3,25.2,30.03,WNW,303,0.0,4.0,81,0.00,,,0.00,Wunderground v.1.15,2013-03-19 11:09:00,
2013-03-19 07:10:00,30.3,25.2,30.03,WNW,303,0.0,0.0,81,0.00,,,0.00,Wunderground v.1.15,2013-03-19 11:10:00,
2013-03-19 07:12:00,30.2,25.1,30.03,WNW,303,0.0,0.0,81,0.00,,,0.00,Wunderground v.1.15,2013-03-19 11:12:00,
2013-03-19 07:14:00,30.1,25.3,30.03,WNW,303,1.0,1.0,82,0.00,,,0.00,Wunderground v.1.15,2013-03-19 11:14:00,
2013-03-19 07:15:00,30.1,25.3,30.03,West,267,3.0,4.0,82,0.00,,,0.00,Wunderground v.1.15,2013-03-19 11:15:00,
2013-03-19 07:17:00,30.1,25.3,30.03,West,267,0.0,4.0,82,0.00,,,0.00,Wunderground v.1.15,2013-03-19 11:17:00,
2013-03-19 07:19:00,30.0,25.2,30.03,West,267,1.0,4.0,82,0.00,,,0.00,Wunderground v.1.15,2013-03-19 11:19:00,
2013-03-19 07:20:00,30.0,25.5,30.04,West,267,0.0,0.0,83,0.00,,,0.00,Wunderground v.1.15,2013-03-19 11:20:00,
2013-03-19 07:22:00,29.9,25.1,30.04,West,267,0.0,1.0,82,0.00,,,0.00,Wunderground v.1.15,2013-03-19 11:22:00,
2013-03-19 07:24:00,29.8,25.3,30.03,West,267,0.0,2.0,83,0.00,,,0.00,Wunderground v.1.15,2013-03-19 11:24:00,
2013-03-19 07:25:00,29.7,25.2,30.04,West,267,0.0,2.0,83,0.00,,,0.00,Wunderground v.1.15,2013-03-19 11:25:00,
2013-03-19 07:26:00,29.7,25.2,30.04,West,267,0.0,2.0,83,0.00,,,0.00,Wunderground v.1.15,2013-03-19 11:26:00,
2013-03-19 07:27:00,29.7,25.2,30.04,West,267,0.0,2.0,83,0.00,,,0.00,Wunderground v.1.15,2013-03-19 11:27:00,
2013-03-19 07:30:00,29.6,25.1,30.04,West,267,0.0,2.0,83,0.00,,,0.00,Wunderground v.1.15,2013-03-19 11:30:00,
2013-03-19 07:31:00,29.5,25.0,30.04,West,267,0.0,0.0,83,0.00,,,0.00,Wunderground v.1.15,2013-03-19 11:31:00,
2013-03-19 07:32:00,29.5,25.3,30.04,West,267,0.0,0.0,84,0.00,,,0.00,Wunderground v.1.15,2013-03-19 11:32:00,
2013-03-19 07:35:00,29.4,25.2,30.05,West,267,0.0,0.0,84,0.00,,,0.00,Wunderground v.1.15,2013-03-19 11:35:00,
2013-03-19 07:36:00,29.3,25.1,30.05,West,267,2.0,2.0,84,0.00,,,0.00,Wunderground v.1.15,2013-03-19 11:36:00,
2013-03-19 07:37:00,29.3,25.1,30.05,West,267,0.0,2.0,84,0.00,,,0.00,Wunderground v.1.15,2013-03-19 11:37:00,
2013-03-19 07:38:00,29.2,25.0,30.05,West,267,0.0,2.0,84,0.00,,,0.00,Wunderground v.1.15,2013-03-19 11:38:00,
2013-03-19 07:40:00,29.2,25.0,30.05,West,267,0.0,0.0,84,0.00,,,0.00,Wunderground v.1.15,2013-03-19 11:40:00,
2013-03-19 07:41:00,29.1,24.9,30.05,West,267,0.0,0.0,84,0.00,,,0.00,Wunderground v.1.15,2013-03-19 11:41:00,
2013-03-19 07:42:00,29.1,24.9,30.05,West,267,0.0,0.0,84,0.00,,,0.00,Wunderground v.1.15,2013-03-19 11:42:00,
2013-03-19 07:43:00,29.0,25.1,30.06,West,267,0.0,1.0,85,0.00,,,0.00,Wunderground v.1.15,2013-03-19 11:43:00,
2013-03-19 07:45:00,29.0,25.1,30.06,West,263,6.0,6.0,85,0.00,,,0.00,Wunderground v.1.15,2013-03-19 11:45:00,
2013-03-19 07:46:00,29.1,25.2,30.06,West,267,3.0,7.0,85,0.00,,,0.00,Wunderground v.1.15,2013-03-19 11:46:00,
2013-03-19 07:47:00,29.1,25.2,30.06,West,278,2.0,7.0,85,0.00,,,0.00,Wunderground v.1.15,2013-03-19 11:47:00,
2013-03-19 07:48:00,29.1,25.2,30.06,West,280,3.0,7.0,85,0.00,,,0.00,Wunderground v.1.15,2013-03-19 11:48:00,
2013-03-19 07:50:00,29.2,25.3,30.06,WNW,293,2.0,3.0,85,0.00,,,0.00,Wunderground v.1.15,2013-03-19 11:50:00,
2013-03-19 07:52:00,29.2,25.3,30.06,WSW,249,3.0,7.0,85,0.00,,,0.00,Wunderground v.1.15,2013-03-19 11:52:00,
2013-03-19 07:53:00,29.2,25.0,30.06,West,269,2.0,7.0,84,0.00,,,0.00,Wunderground v.1.15,2013-03-19 11:53:00,
2013-03-19 07:55:00,29.3,25.1,30.06,WNW,290,5.0,7.0,84,0.00,,,0.00,Wunderground v.1.15,2013-03-19 11:55:00,
2013-03-19 07:57:00,29.4,25.2,30.06,WNW,288,4.0,7.0,84,0.00,,,0.00,Wunderground v.1.15,2013-03-19 11:57:00,
2013-03-19 07:58:00,29.4,24.9,30.06,West,263,1.0,7.0,83,0.00,,,0.00,Wunderground v.1.15,2013-03-19 11:58:00,
2013-03-19 08:00:00,29.5,25.0,30.06,West,274,1.0,4.0,83,0.00,,,0.00,Wunderground v.1.15,2013-03-19 12:00:00,
2013-03-19 08:02:00,29.5,24.7,30.06,NW,310,5.0,7.0,82,0.00,,,0.00,Wunderground v.1.15,2013-03-19 12:02:00,
2013-03-19 08:03:00,29.6,24.5,30.06,NW,321,4.0,7.0,81,0.00,,,0.00,Wunderground v.1.15,2013-03-19 12:03:00,
2013-03-19 08:04:00,29.5,24.4,30.06,WNW,287,4.0,7.0,81,0.00,,,0.00,Wunderground v.1.15,2013-03-19 12:04:00,
2013-03-19 08:06:00,29.6,24.5,30.06,West,278,2.0,7.0,81,0.00,,,0.00,Wunderground v.1.15,2013-03-19 12:06:00,
2013-03-19 08:08:00,29.6,24.2,30.07,WNW,287,1.0,7.0,80,0.00,,,0.00,Wunderground v.1.15,2013-03-19 12:08:00,
2013-03-19 08:09:00,29.6,24.2,30.07,WSW,249,4.0,9.0,80,0.00,,,0.00,Wunderground v.1.15,2013-03-19 12:09:00,
2013-03-19 08:11:00,29.7,24.0,30.07,West,271,5.0,5.0,79,0.00,,,0.00,Wunderground v.1.15,2013-03-19 12:11:00,
2013-03-19 08:14:00,29.7,24.0,30.07,West,259,5.0,8.0,79,0.00,,,0.00,Wunderground v.1.15,2013-03-19 12:14:00,
2013-03-19 08:16:00,29.8,23.8,30.07,WSW,253,9.0,11.0,78,0.00,,,0.00,Wunderground v.1.15,2013-03-19 12:16:00,
2013-03-19 08:19:00,29.9,23.9,30.07,West,270,2.0,11.0,78,0.00,,,0.00,Wunderground v.1.15,2013-03-19 12:19:00,
2013-03-19 08:22:00,30.0,24.0,30.07,WNW,288,9.0,9.0,78,0.00,,,0.00,Wunderground v.1.15,2013-03-19 12:22:00,
2013-03-19 08:24:00,30.0,23.7,30.07,West,263,2.0,9.0,77,0.00,,,0.00,Wunderground v.1.15,2013-03-19 12:24:00,
2013-03-19 08:25:00,30.0,23.7,30.07,West,263,0.0,9.0,77,0.00,,,0.00,Wunderground v.1.15,2013-03-19 12:25:00,
2013-03-19 08:27:00,30.1,23.8,30.07,West,263,3.0,9.0,77,0.00,,,0.00,Wunderground v.1.15,2013-03-19 12:27:00,
2013-03-19 08:29:00,30.1,23.8,30.07,NW,313,0.0,9.0,77,0.00,,,0.00,Wunderground v.1.15,2013-03-19 12:29:00,
2013-03-19 08:30:00,30.1,23.8,30.07,NW,309,1.0,2.0,77,0.00,,,0.00,Wunderground v.1.15,2013-03-19 12:30:00,
2013-03-19 08:33:00,30.1,23.8,30.08,NW,313,5.0,6.0,77,0.00,,,0.00,Wunderground v.1.15,2013-03-19 12:33:00,
2013-03-19 08:34:00,30.1,23.4,30.08,NW,309,3.0,6.0,76,0.00,,,0.00,Wunderground v.1.15,2013-03-19 12:34:00,
2013-03-19 08:35:00,30.1,23.4,30.08,NW,309,1.0,6.0,76,0.00,,,0.00,Wunderground v.1.15,2013-03-19 12:35:00,
2013-03-19 08:38:00,30.1,23.4,30.08,WNW,300,2.0,7.0,76,0.00,,,0.00,Wunderground v.1.15,2013-03-19 12:38:00,
2013-03-19 08:39:00,30.2,23.5,30.08,WNW,301,1.0,7.0,76,0.00,,,0.00,Wunderground v.1.15,2013-03-19 12:39:00,
2013-03-19 08:40:00,30.2,23.5,30.08,WNW,284,0.0,2.0,76,0.00,,,0.00,Wunderground v.1.15,2013-03-19 12:40:00,
2013-03-19 08:43:00,30.2,23.5,30.08,NW,321,2.0,4.0,76,0.00,,,0.00,Wunderground v.1.15,2013-03-19 12:43:00,
2013-03-19 08:44:00,30.3,23.6,30.08,NW,318,2.0,4.0,76,0.00,,,0.00,Wunderground v.1.15,2013-03-19 12:44:00,
2013-03-19 08:45:00,30.3,23.6,30.08,NW,320,3.0,4.0,76,0.00,,,0.00,Wunderground v.1.15,2013-03-19 12:45:00,
2013-03-19 08:48:00,30.4,23.4,30.09,WNW,296,3.0,15.0,75,0.00,,,0.00,Wunderground v.1.15,2013-03-19 12:48:00,
2013-03-19 08:50:00,30.5,23.5,30.09,WNW,295,0.0,2.0,75,0.00,,,0.00,Wunderground v.1.15,2013-03-19 12:50:00,
2013-03-19 08:53:00,30.5,23.5,30.09,WNW,282,5.0,10.0,75,0.00,,,0.00,Wunderground v.1.15,2013-03-19 12:53:00,
2013-03-19 08:55:00,30.6,23.0,30.09,WNW,297,3.0,11.0,73,0.00,,,0.00,Wunderground v.1.15,2013-03-19 12:55:00,
2013-03-19 08:56:00,30.6,23.3,30.09,WNW,292,3.0,11.0,74,0.00,,,0.00,Wunderground v.1.15,2013-03-19 12:56:00,
2013-03-19 08:58:00,30.7,23.4,30.09,NW,320,1.0,11.0,74,0.00,,,0.00,Wunderground v.1.15,2013-03-19 12:58:00,
2013-03-19 09:00:00,30.7,23.1,30.09,WNW,293,3.0,4.0,73,0.00,,,0.00,Wunderground v.1.15,2013-03-19 13:00:00,
2013-03-19 09:01:00,30.7,23.1,30.09,WSW,249,3.0,6.0,73,0.00,,,0.00,Wunderground v.1.15,2013-03-19 13:01:00,
2013-03-19 09:04:00,30.8,23.2,30.09,West,280,7.0,11.0,73,0.00,,,0.00,Wunderground v.1.15,2013-03-19 13:04:00,
2013-03-19 09:05:00,30.8,23.2,30.09,WNW,287,0.0,11.0,73,0.00,,,0.00,Wunderground v.1.15,2013-03-19 13:05:00,
2013-03-19 09:07:00,30.9,23.3,30.10,NNW,330,2.0,11.0,73,0.00,,,0.00,Wunderground v.1.15,2013-03-19 13:07:00,
2013-03-19 09:09:00,31.0,23.4,30.10,NNW,330,0.0,11.0,73,0.00,,,0.00,Wunderground v.1.15,2013-03-19 13:09:00,
2013-03-19 09:11:00,31.1,23.8,30.10,WNW,294,0.0,3.0,74,0.00,,,0.00,Wunderground v.1.15,2013-03-19 13:11:00,
2013-03-19 09:12:00,31.2,23.5,30.10,West,271,2.0,3.0,73,0.00,,,0.00,Wunderground v.1.15,2013-03-19 13:12:00,
2013-03-19 09:13:00,31.2,23.9,30.10,WNW,283,3.0,3.0,74,0.00,,,0.00,Wunderground v.1.15,2013-03-19 13:13:00,
2013-03-19 09:14:00,31.3,23.6,30.10,West,276,5.0,6.0,73,0.00,,,0.00,Wunderground v.1.15,2013-03-19 13:14:00,
2013-03-19 09:16:00,31.3,23.0,30.10,NW,319,5.0,7.0,71,0.00,,,0.00,Wunderground v.1.15,2013-03-19 13:16:00,
2013-03-19 09:17:00,31.4,23.1,30.10,West,261,5.0,13.0,71,0.00,,,0.00,Wunderground v.1.15,2013-03-19 13:17:00,
2013-03-19 09:18:00,31.4,22.7,30.10,West,259,5.0,13.0,70,0.00,,,0.00,Wunderground v.1.15,2013-03-19 13:18:00,
2013-03-19 09:19:00,31.4,22.7,30.10,WNW,292,6.0,13.0,70,0.00,,,0.00,Wunderground v.1.15,2013-03-19 13:19:00,
2013-03-19 09:21:00,31.4,23.4,30.10,WNW,302,3.0,5.0,72,0.00,,,0.00,Wunderground v.1.15,2013-03-19 13:21:00,
2013-03-19 09:22:00,31.4,23.4,30.10,West,261,0.0,5.0,72,0.00,,,0.00,Wunderground v.1.15,2013-03-19 13:22:00,
2013-03-19 09:23:00,31.5,23.5,30.10,West,280,3.0,5.0,72,0.00,,,0.00,Wunderground v.1.15,2013-03-19 13:23:00,
2013-03-19 09:24:00,31.5,23.2,30.10,WNW,283,3.0,5.0,71,0.00,,,0.00,Wunderground v.1.15,2013-03-19 13:24:00,
2013-03-19 09:26:00,31.6,23.3,30.10,WNW,296,4.0,10.0,71,0.00,,,0.00,Wunderground v.1.15,2013-03-19 13:26:00,
2013-03-19 09:27:00,31.6,22.9,30.10,WNW,288,3.0,11.0,70,0.00,,,0.00,Wunderground v.1.15,2013-03-19 13:27:00,
2013-03-19 09:28:00,31.7,23.4,30.10,WSW,255,6.0,11.0,71,0.00,,,0.00,Wunderground v.1.15,2013-03-19 13:28:00,
2013-03-19 09:29:00,31.7,23.4,30.10,West,263,5.0,11.0,71,0.00,,,0.00,Wunderground v.1.15,2013-03-19 13:29:00,
2013-03-19 09:32:00,31.7,23.4,30.10,SW,233,5.0,10.0,71,0.00,,,0.00,Wunderground v.1.15,2013-03-19 13:32:00,
2013-03-19 09:34:00,31.7,23.0,30.10,WSW,244,6.0,10.0,70,0.00,,,0.00,Wunderground v.1.15,2013-03-19 13:34:00,
2013-03-19 09:35:00,31.7,23.0,30.10,West,262,4.0,13.0,70,0.00,,,0.00,Wunderground v.1.15,2013-03-19 13:35:00,
2013-03-19 09:38:00,31.8,23.5,30.10,West,261,3.0,13.0,71,0.00,,,0.00,Wunderground v.1.15,2013-03-19 13:38:00,
2013-03-19 09:39:00,31.9,22.9,30.10,WSW,239,4.0,13.0,69,0.00,,,0.00,Wunderground v.1.15,2013-03-19 13:39:00,
2013-03-19 09:40:00,31.9,23.2,30.10,WSW,244,1.0,5.0,70,0.00,,,0.00,Wunderground v.1.15,2013-03-19 13:40:00,
2013-03-19 09:43:00,32.0,23.7,30.10,West,265,0.0,5.0,71,0.00,,,0.00,Wunderground v.1.15,2013-03-19 13:43:00,
2013-03-19 09:44:00,32.0,24.0,30.10,West,272,4.0,6.0,72,0.00,,,0.00,Wunderground v.1.15,2013-03-19 13:44:00,
2013-03-19 09:45:00,32.1,23.8,30.10,West,279,4.0,9.0,71,0.00,,,0.00,Wunderground v.1.15,2013-03-19 13:45:00,
2013-03-19 09:48:00,32.3,23.3,30.10,West,276,13.0,15.0,69,0.00,,,0.00,Wunderground v.1.15,2013-03-19 13:48:00,
2013-03-19 09:49:00,32.3,22.9,30.10,NW,304,8.0,17.0,68,0.00,,,0.00,Wunderground v.1.15,2013-03-19 13:49:00,
2013-03-19 09:50:00,32.3,22.9,30.10,West,269,5.0,9.0,68,0.00,,,0.00,Wunderground v.1.15,2013-03-19 13:50:00,
2013-03-19 09:54:00,32.4,23.0,30.10,WNW,291,5.0,12.0,68,0.00,,,0.00,Wunderground v.1.15,2013-03-19 13:54:00,
2013-03-19 09:55:00,32.4,23.0,30.10,West,275,5.0,12.0,68,0.00,,,0.00,Wunderground v.1.15,2013-03-19 13:55:00,
2013-03-19 09:59:00,32.6,23.6,30.10,WNW,295,4.0,12.0,69,0.00,,,0.00,Wunderground v.1.15,2013-03-19 13:59:00,
2013-03-19 10:00:00,32.6,23.2,30.11,WSW,238,8.0,10.0,68,0.00,,,0.00,Wunderground v.1.15,2013-03-19 14:00:00,
2013-03-19 10:04:00,32.8,23.0,30.11,West,269,4.0,11.0,67,0.00,,,0.00,Wunderground v.1.15,2013-03-19 14:04:00,
2013-03-19 10:05:00,32.8,23.0,30.11,WNW,298,7.0,11.0,67,0.00,,,0.00,Wunderground v.1.15,2013-03-19 14:05:00,
2013-03-19 10:09:00,32.9,23.1,30.11,NW,310,4.0,11.0,67,0.00,,,0.00,Wunderground v.1.15,2013-03-19 14:09:00,
2013-03-19 10:10:00,33.0,23.2,30.11,NW,307,4.0,6.0,67,0.00,,,0.00,Wunderground v.1.15,2013-03-19 14:10:00,
2013-03-19 10:14:00,33.3,23.2,30.11,WNW,283,6.0,11.0,66,0.00,,,0.00,Wunderground v.1.15,2013-03-19 14:14:00,
2013-03-19 10:15:00,33.3,23.2,30.11,WNW,294,6.0,11.0,66,0.00,,,0.00,Wunderground v.1.15,2013-03-19 14:15:00,
2013-03-19 10:19:00,33.4,22.5,30.11,WNW,282,6.0,18.0,64,0.00,,,0.00,Wunderground v.1.15,2013-03-19 14:19:00,
2013-03-19 10:20:00,33.4,22.5,30.11,West,278,6.0,18.0,64,0.00,,,0.00,Wunderground v.1.15,2013-03-19 14:20:00,
2013-03-19 10:25:00,33.7,22.4,30.11,West,278,3.0,14.0,63,0.00,,,0.00,Wunderground v.1.15,2013-03-19 14:25:00,
2013-03-19 10:30:00,33.8,22.1,30.11,WNW,282,12.0,12.0,62,0.00,,,0.00,Wunderground v.1.15,2013-03-19 14:30:00,
2013-03-19 10:31:00,33.8,21.8,30.11,NW,313,5.0,13.0,61,0.00,,,0.00,Wunderground v.1.15,2013-03-19 14:31:00,
2013-03-19 10:35:00,34.1,22.8,30.11,NW,323,4.0,13.0,63,0.00,,,0.00,Wunderground v.1.15,2013-03-19 14:35:00,
2013-03-19 10:36:00,34.3,23.0,30.11,NW,325,3.0,13.0,63,0.00,,,0.00,Wunderground v.1.15,2013-03-19 14:36:00,
2013-03-19 10:40:00,34.4,22.3,30.11,NW,305,4.0,6.0,61,0.00,,,0.00,Wunderground v.1.15,2013-03-19 14:40:00,
2013-03-19 10:42:00,34.4,22.7,30.11,West,276,5.0,7.0,62,0.00,,,0.00,Wunderground v.1.15,2013-03-19 14:42:00,
2013-03-19 10:45:00,34.8,23.1,30.11,NW,318,4.0,14.0,62,0.00,,,0.00,Wunderground v.1.15,2013-03-19 14:45:00,
2013-03-19 10:46:00,34.8,23.1,30.11,NW,310,4.0,14.0,62,0.00,,,0.00,Wunderground v.1.15,2013-03-19 14:46:00,
2013-03-19 10:47:00,34.9,22.8,30.11,NW,307,6.0,14.0,61,0.00,,,0.00,Wunderground v.1.15,2013-03-19 14:47:00,
2013-03-19 10:51:00,35.1,22.2,30.11,West,261,6.0,10.0,59,0.00,,,0.00,Wunderground v.1.15,2013-03-19 14:51:00,
2013-03-19 10:52:00,35.1,22.6,30.11,NW,323,4.0,12.0,60,0.00,,,0.00,Wunderground v.1.15,2013-03-19 14:52:00,
2013-03-19 10:56:00,35.3,22.0,30.11,WNW,302,4.0,18.0,58,0.00,,,0.00,Wunderground v.1.15,2013-03-19 14:56:00,
2013-03-19 10:57:00,35.3,23.2,30.11,West,275,7.0,18.0,61,0.00,,,0.00,Wunderground v.1.15,2013-03-19 14:57:00,
2013-03-19 11:02:00,35.6,23.5,30.11,NW,313,7.0,7.0,61,0.00,,,0.00,Wunderground v.1.15,2013-03-19 15:02:00,
2013-03-19 11:07:00,35.9,23.0,30.10,NW,310,7.0,13.0,59,0.00,,,0.00,Wunderground v.1.15,2013-03-19 15:07:00,
2013-03-19 11:12:00,36.3,23.7,30.11,WNW,301,5.0,5.0,60,0.00,,,0.00,Wunderground v.1.15,2013-03-19 15:12:00,
2013-03-19 11:17:00,36.6,22.8,30.11,WNW,296,3.0,8.0,57,0.00,,,0.00,Wunderground v.1.15,2013-03-19 15:17:00,
2013-03-19 11:22:00,36.8,24.2,30.11,NW,306,1.0,5.0,60,0.00,,,0.00,Wunderground v.1.15,2013-03-19 15:22:00,
2013-03-19 11:23:00,36.8,23.8,30.11,NW,307,3.0,5.0,59,0.00,,,0.00,Wunderground v.1.15,2013-03-19 15:23:00,
2013-03-19 11:27:00,37.2,24.2,30.12,WNW,303,2.0,10.0,59,0.00,,,0.00,Wunderground v.1.15,2013-03-19 15:27:00,
2013-03-19 11:28:00,37.2,24.6,30.12,NW,319,4.0,10.0,60,0.00,,,0.00,Wunderground v.1.15,2013-03-19 15:28:00,
2013-03-19 11:33:00,37.3,23.0,30.12,West,281,3.0,15.0,56,0.00,,,0.00,Wunderground v.1.15,2013-03-19 15:33:00,
2013-03-19 11:38:00,37.4,23.5,30.13,NW,311,5.0,15.0,57,0.00,,,0.00,Wunderground v.1.15,2013-03-19 15:38:00,
2013-03-19 11:43:00,37.7,23.0,30.13,West,276,4.0,8.0,55,0.00,,,0.00,Wunderground v.1.15,2013-03-19 15:43:00,
2013-03-19 11:44:00,37.8,23.1,30.13,NW,308,10.0,11.0,55,0.00,,,0.00,Wunderground v.1.15,2013-03-19 15:44:00,
2013-03-19 11:48:00,38.1,23.8,30.14,WNW,282,5.0,15.0,56,0.00,,,0.00,Wunderground v.1.15,2013-03-19 15:48:00,
2013-03-19 11:49:00,38.2,24.3,30.14,WNW,295,5.0,15.0,57,0.00,,,0.00,Wunderground v.1.15,2013-03-19 15:49:00,
2013-03-19 11:53:00,38.4,23.6,30.13,WNW,303,3.0,12.0,55,0.00,,,0.00,Wunderground v.1.15,2013-03-19 15:53:00,
2013-03-19 11:54:00,38.4,24.1,30.13,NW,323,5.0,12.0,56,0.00,,,0.00,Wunderground v.1.15,2013-03-19 15:54:00,
2013-03-19 11:58:00,38.5,23.7,30.13,WSW,258,5.0,12.0,55,0.00,,,0.00,Wunderground v.1.15,2013-03-19 15:58:00,
2013-03-19 11:59:00,38.6,23.8,30.13,West,259,1.0,12.0,55,0.00,,,0.00,Wunderground v.1.15,2013-03-19 15:59:00,
2013-03-19 12:03:00,38.8,24.0,30.14,WSW,242,16.0,16.0,55,0.00,,,0.00,Wunderground v.1.15,2013-03-19 16:03:00,
2013-03-19 12:04:00,38.8,23.6,30.13,WSW,242,13.0,17.0,54,0.00,,,0.00,Wunderground v.1.15,2013-03-19 16:04:00,
2013-03-19 12:08:00,38.8,24.4,30.13,WNW,288,4.0,17.0,56,0.00,,,0.00,Wunderground v.1.15,2013-03-19 16:08:00,
2013-03-19 12:09:00,38.9,24.1,30.13,West,263,9.0,17.0,55,0.00,,,0.00,Wunderground v.1.15,2013-03-19 16:09:00,
2013-03-19 12:14:00,39.4,23.7,30.14,West,279,10.0,17.0,53,0.00,,,0.00,Wunderground v.1.15,2013-03-19 16:14:00,
2013-03-19 12:15:00,39.4,22.8,30.14,West,262,14.0,17.0,51,0.00,,,0.00,Wunderground v.1.15,2013-03-19 16:15:00,
2013-03-19 12:19:00,39.5,22.4,30.14,WNW,288,10.0,18.0,50,0.00,,,0.00,Wunderground v.1.15,2013-03-19 16:19:00,
2013-03-19 12:20:00,39.5,22.4,30.14,West,269,4.0,18.0,50,0.00,,,0.00,Wunderground v.1.15,2013-03-19 16:20:00,
2013-03-19 12:24:00,39.8,24.5,30.14,WNW,286,12.0,18.0,54,0.00,,,0.00,Wunderground v.1.15,2013-03-19 16:24:00,
2013-03-19 12:25:00,39.8,24.5,30.14,NNW,348,7.0,18.0,54,0.00,,,0.00,Wunderground v.1.15,2013-03-19 16:25:00,
2013-03-19 12:29:00,40.1,23.4,30.14,NW,309,9.0,18.0,51,0.00,,,0.00,Wunderground v.1.15,2013-03-19 16:29:00,
2013-03-19 12:30:00,40.1,23.4,30.14,WSW,238,9.0,18.0,51,0.00,,,0.00,Wunderground v.1.15,2013-03-19 16:30:00,
2013-03-19 12:31:00,40.2,23.5,30.14,NW,326,5.0,12.0,51,0.00,,,0.00,Wunderground v.1.15,2013-03-19 16:31:00,
2013-03-19 12:35:00,40.5,23.8,30.14,NNE,15,5.0,15.0,51,0.00,,,0.00,Wunderground v.1.15,2013-03-19 16:35:00,
2013-03-19 12:37:00,40.5,22.3,30.15,North,350,10.0,15.0,48,0.00,,,0.00,Wunderground v.1.15,2013-03-19 16:37:00,
2013-03-19 12:40:00,40.6,23.4,30.15,NW,319,7.0,8.0,50,0.00,,,0.00,Wunderground v.1.15,2013-03-19 16:40:00,
2013-03-19 12:42:00,40.9,24.6,30.14,NNW,328,5.0,10.0,52,0.00,,,0.00,Wunderground v.1.15,2013-03-19 16:42:00,
2013-03-19 12:45:00,41.1,24.3,30.15,WSW,249,4.0,11.0,51,0.00,,,0.00,Wunderground v.1.15,2013-03-19 16:45:00,
2013-03-19 12:47:00,41.0,22.8,30.15,West,265,15.0,23.0,48,0.00,,,0.00,Wunderground v.1.15,2013-03-19 16:47:00,
2013-03-19 12:50:00,40.8,23.6,30.15,WNW,295,8.0,12.0,50,0.00,,,0.00,Wunderground v.1.15,2013-03-19 16:50:00,
2013-03-19 12:53:00,40.9,22.7,30.15,WNW,292,7.0,17.0,48,0.00,,,0.00,Wunderground v.1.15,2013-03-19 16:53:00,
2013-03-19 12:55:00,40.8,23.1,30.15,WNW,299,6.0,17.0,49,0.00,,,0.00,Wunderground v.1.15,2013-03-19 16:55:00,
2013-03-19 12:56:00,40.9,22.7,30.15,West,269,15.0,17.0,48,0.00,,,0.00,Wunderground v.1.15,2013-03-19 16:56:00,
2013-03-19 12:58:00,40.9,22.7,30.15,West,274,10.0,17.0,48,0.00,,,0.00,Wunderground v.1.15,2013-03-19 16:58:00,
2013-03-19 13:01:00,41.1,22.4,30.15,West,278,15.0,15.0,47,0.00,,,0.00,Wunderground v.1.15,2013-03-19 17:01:00,
2013-03-19 13:03:00,41.0,23.3,30.15,WNW,301,5.0,15.0,49,0.00,,,0.00,Wunderground v.1.15,2013-03-19 17:03:00,
2013-03-19 13:06:00,41.1,22.4,30.15,NNW,336,7.0,15.0,47,0.00,,,0.00,Wunderground v.1.15,2013-03-19 17:06:00,
2013-03-19 13:07:00,41.2,24.4,30.15,WNW,302,3.0,15.0,51,0.00,,,0.00,Wunderground v.1.15,2013-03-19 17:07:00,
2013-03-19 13:08:00,41.3,24.0,30.15,West,275,10.0,15.0,50,0.00,,,0.00,Wunderground v.1.15,2013-03-19 17:08:00,
2013-03-19 13:11:00,41.7,24.4,30.15,WNW,284,7.0,9.0,50,0.00,,,0.00,Wunderground v.1.15,2013-03-19 17:11:00,
2013-03-19 13:12:00,41.8,24.5,30.15,West,259,11.0,14.0,50,0.00,,,0.00,Wunderground v.1.15,2013-03-19 17:12:00,
2013-03-19 13:13:00,41.9,24.1,30.15,West,272,7.0,17.0,49,0.00,,,0.00,Wunderground v.1.15,2013-03-19 17:13:00,
2013-03-19 13:16:00,42.2,24.4,30.15,NNW,341,7.0,17.0,49,0.00,,,0.00,Wunderground v.1.15,2013-03-19 17:16:00,
2013-03-19 13:17:00,42.3,24.5,30.15,North,349,10.0,18.0,49,0.00,,,0.00,Wunderground v.1.15,2013-03-19 17:17:00,
2013-03-19 13:18:00,42.5,23.7,30.15,NW,321,6.0,18.0,47,0.00,,,0.00,Wunderground v.1.15,2013-03-19 17:18:00,
2013-03-19 13:21:00,42.7,24.8,30.15,North,357,12.0,16.0,49,0.00,,,0.00,Wunderground v.1.15,2013-03-19 17:21:00,
2013-03-19 13:22:00,42.7,24.8,30.15,West,269,10.0,16.0,49,0.00,,,0.00,Wunderground v.1.15,2013-03-19 17:22:00,
2013-03-19 13:23:00,42.7,23.3,30.15,WNW,295,10.0,16.0,46,0.00,,,0.00,Wunderground v.1.15,2013-03-19 17:23:00,
2013-03-19 13:26:00,42.9,24.0,30.15,WSW,244,8.0,16.0,47,0.00,,,0.00,Wunderground v.1.15,2013-03-19 17:26:00,
2013-03-19 13:27:00,42.9,24.0,30.15,WNW,286,5.0,16.0,47,0.00,,,0.00,Wunderground v.1.15,2013-03-19 17:27:00,
2013-03-19 13:28:00,43.0,23.6,30.15,WNW,284,4.0,16.0,46,0.00,,,0.00,Wunderground v.1.15,2013-03-19 17:28:00,
2013-03-19 13:29:00,43.1,24.2,30.15,SSW,212,10.0,16.0,47,0.00,,,0.00,Wunderground v.1.15,2013-03-19 17:29:00,
2013-03-19 13:32:00,43.2,23.3,30.15,West,264,9.0,10.0,45,0.00,,,0.00,Wunderground v.1.15,2013-03-19 17:32:00,
2013-03-19 13:33:00,43.2,23.3,30.15,NW,315,4.0,11.0,45,0.00,,,0.00,Wunderground v.1.15,2013-03-19 17:33:00,
2013-03-19 13:34:00,43.2,23.3,30.16,NW,305,10.0,11.0,45,0.00,,,0.00,Wunderground v.1.15,2013-03-19 17:34:00,
2013-03-19 13:37:00,43.2,23.8,30.16,NW,310,5.0,12.0,46,0.00,,,0.00,Wunderground v.1.15,2013-03-19 17:37:00,
2013-03-19 13:38:00,43.2,24.3,30.16,WSW,257,5.0,12.0,47,0.00,,,0.00,Wunderground v.1.15,2013-03-19 17:38:00,
2013-03-19 13:39:00,43.3,24.4,30.16,West,278,7.0,12.0,47,0.00,,,0.00,Wunderground v.1.15,2013-03-19 17:39:00,
2013-03-19 13:42:00,43.4,25.5,30.16,WNW,301,6.0,18.0,49,0.00,,,0.00,Wunderground v.1.15,2013-03-19 17:42:00,
2013-03-19 13:43:00,43.4,24.5,30.16,NNW,337,4.0,18.0,47,0.00,,,0.00,Wunderground v.1.15,2013-03-19 17:43:00,
2013-03-19 13:44:00,43.6,26.2,30.16,NW,323,6.0,18.0,50,0.00,,,0.00,Wunderground v.1.15,2013-03-19 17:44:00,
2013-03-19 13:47:00,43.8,24.9,30.16,WNW,298,5.0,18.0,47,0.00,,,0.00,Wunderground v.1.15,2013-03-19 17:47:00,
2013-03-19 13:48:00,43.9,24.4,30.16,WNW,299,5.0,18.0,46,0.00,,,0.00,Wunderground v.1.15,2013-03-19 17:48:00,
2013-03-19 13:50:00,43.8,23.3,30.16,NW,317,7.0,7.0,44,0.00,,,0.00,Wunderground v.1.15,2013-03-19 17:50:00,
2013-03-19 13:53:00,44.1,23.6,30.17,WNW,303,9.0,13.0,44,0.00,,,0.00,Wunderground v.1.15,2013-03-19 17:53:00,
2013-03-19 13:55:00,44.5,25.5,30.17,WNW,298,6.0,13.0,47,0.00,,,0.00,Wunderground v.1.15,2013-03-19 17:55:00,
2013-03-19 13:58:00,44.7,23.5,30.17,West,278,16.0,22.0,43,0.00,,,0.00,Wunderground v.1.15,2013-03-19 17:58:00,
2013-03-19 13:59:00,44.5,22.8,30.17,WNW,297,4.0,22.0,42,0.00,,,0.00,Wunderground v.1.15,2013-03-19 17:59:00,
2013-03-19 14:00:00,44.3,23.2,30.17,WNW,289,3.0,9.0,43,0.00,,,0.00,Wunderground v.1.15,2013-03-19 18:00:00,
2013-03-19 14:03:00,44.4,24.4,30.17,NW,326,4.0,14.0,45,0.00,,,0.00,Wunderground v.1.15,2013-03-19 18:03:00,
2013-03-19 14:04:00,44.4,23.3,30.17,NNW,333,4.0,14.0,43,0.00,,,0.00,Wunderground v.1.15,2013-03-19 18:04:00,
2013-03-19 14:06:00,44.5,23.4,30.17,NW,323,10.0,19.0,43,0.00,,,0.00,Wunderground v.1.15,2013-03-19 18:06:00,
2013-03-19 14:08:00,44.5,23.4,30.16,NNW,327,4.0,19.0,43,0.00,,,0.00,Wunderground v.1.15,2013-03-19 18:08:00,
2013-03-19 14:09:00,44.5,23.9,30.16,NW,321,4.0,19.0,44,0.00,,,0.00,Wunderground v.1.15,2013-03-19 18:09:00,
2013-03-19 14:12:00,44.9,24.8,30.17,NNW,338,4.0,11.0,45,0.00,,,0.00,Wunderground v.1.15,2013-03-19 18:12:00,
2013-03-19 14:13:00,45.0,24.4,30.17,WNW,282,10.0,16.0,44,0.00,,,0.00,Wunderground v.1.15,2013-03-19 18:13:00,
2013-03-19 14:14:00,45.0,22.7,30.16,WNW,298,5.0,19.0,41,0.00,,,0.00,Wunderground v.1.15,2013-03-19 18:14:00,
2013-03-19 14:15:00,45.0,22.7,30.16,WNW,287,6.0,19.0,41,0.00,,,0.00,Wunderground v.1.15,2013-03-19 18:15:00,
2013-03-19 14:17:00,45.0,23.3,30.16,WNW,285,8.0,19.0,42,0.00,,,0.00,Wunderground v.1.15,2013-03-19 18:17:00,
2013-03-19 14:18:00,45.0,23.3,30.16,NNW,334,4.0,19.0,42,0.00,,,0.00,Wunderground v.1.15,2013-03-19 18:18:00,
2013-03-19 14:19:00,45.0,22.1,30.17,WNW,302,10.0,19.0,40,0.00,,,0.00,Wunderground v.1.15,2013-03-19 18:19:00,
2013-03-19 14:20:00,45.0,22.1,30.16,NW,319,9.0,11.0,40,0.00,,,0.00,Wunderground v.1.15,2013-03-19 18:20:00,
2013-03-19 14:22:00,45.0,22.7,30.17,WSW,238,11.0,14.0,41,0.00,,,0.00,Wunderground v.1.15,2013-03-19 18:22:00,
2013-03-19 14:23:00,45.0,22.7,30.17,WNW,283,6.0,17.0,41,0.00,,,0.00,Wunderground v.1.15,2013-03-19 18:23:00,
2013-03-19 14:25:00,45.0,23.3,30.16,NNW,345,14.0,17.0,42,0.00,,,0.00,Wunderground v.1.15,2013-03-19 18:25:00,
2013-03-19 14:27:00,45.0,23.8,30.16,West,276,8.0,17.0,43,0.00,,,0.00,Wunderground v.1.15,2013-03-19 18:27:00,
2013-03-19 14:29:00,45.0,24.4,30.16,NW,311,1.0,17.0,44,0.00,,,0.00,Wunderground v.1.15,2013-03-19 18:29:00,
2013-03-19 14:30:00,45.2,22.3,30.16,WNW,286,11.0,11.0,40,0.00,,,0.00,Wunderground v.1.15,2013-03-19 18:30:00,
2013-03-19 14:32:00,45.2,23.4,30.16,West,272,10.0,21.0,42,0.00,,,0.00,Wunderground v.1.15,2013-03-19 18:32:00,
2013-03-19 14:34:00,45.2,24.0,30.16,NW,314,11.0,21.0,43,0.00,,,0.00,Wunderground v.1.15,2013-03-19 18:34:00,
2013-03-19 14:35:00,45.1,23.3,30.16,West,278,4.0,21.0,42,0.00,,,0.00,Wunderground v.1.15,2013-03-19 18:35:00,
2013-03-19 14:37:00,45.1,22.8,30.16,West,267,16.0,21.0,41,0.00,,,0.00,Wunderground v.1.15,2013-03-19 18:37:00,
2013-03-19 14:39:00,44.9,20.8,30.17,North,11,5.0,21.0,38,0.00,,,0.00,Wunderground v.1.15,2013-03-19 18:39:00,
2013-03-19 14:40:00,44.7,21.2,30.16,WNW,282,9.0,9.0,39,0.00,,,0.00,Wunderground v.1.15,2013-03-19 18:40:00,
2013-03-19 14:43:00,44.5,21.6,30.16,NW,325,6.0,19.0,40,0.00,,,0.00,Wunderground v.1.15,2013-03-19 18:43:00,
2013-03-19 14:45:00,44.7,23.5,30.16,WNW,293,3.0,19.0,43,0.00,,,0.00,Wunderground v.1.15,2013-03-19 18:45:00,
2013-03-19 14:48:00,45.2,21.7,30.16,NNW,342,5.0,19.0,39,0.00,,,0.00,Wunderground v.1.15,2013-03-19 18:48:00,
2013-03-19 14:50:00,45.2,21.1,30.16,NW,310,10.0,10.0,38,0.00,,,0.00,Wunderground v.1.15,2013-03-19 18:50:00,
2013-03-19 14:51:00,45.2,21.7,30.16,NW,319,6.0,10.0,39,0.00,,,0.00,Wunderground v.1.15,2013-03-19 18:51:00,
2013-03-19 14:54:00,45.6,22.6,30.16,NW,309,3.0,13.0,40,0.00,,,0.00,Wunderground v.1.15,2013-03-19 18:54:00,
2013-03-19 14:55:00,45.7,23.9,30.16,NW,324,13.0,18.0,42,0.00,,,0.00,Wunderground v.1.15,2013-03-19 18:55:00,
2013-03-19 14:56:00,45.8,22.2,30.16,NNW,327,6.0,18.0,39,0.00,,,0.00,Wunderground v.1.15,2013-03-19 18:56:00,
2013-03-19 14:59:00,45.9,22.3,30.16,WNW,290,5.0,18.0,39,0.00,,,0.00,Wunderground v.1.15,2013-03-19 18:59:00,
2013-03-19 15:00:00,46.0,23.6,30.16,WNW,300,12.0,14.0,41,0.00,,,0.00,Wunderground v.1.15,2013-03-19 19:00:00,
2013-03-19 15:02:00,46.0,23.6,30.16,NW,305,3.0,14.0,41,0.00,,,0.00,Wunderground v.1.15,2013-03-19 19:02:00,
2013-03-19 15:04:00,46.3,23.9,30.15,WNW,303,3.0,14.0,41,0.00,,,0.00,Wunderground v.1.15,2013-03-19 19:04:00,
2013-03-19 15:05:00,46.4,25.1,30.16,NW,326,5.0,14.0,43,0.00,,,0.00,Wunderground v.1.15,2013-03-19 19:05:00,
2013-03-19 15:07:00,46.7,23.0,30.15,NNW,333,5.0,14.0,39,0.00,,,0.00,Wunderground v.1.15,2013-03-19 19:07:00,
2013-03-19 15:09:00,46.7,22.4,30.16,NW,313,6.0,20.0,38,0.00,,,0.00,Wunderground v.1.15,2013-03-19 19:09:00,
2013-03-19 15:10:00,46.6,22.9,30.15,NNE,13,5.0,7.0,39,0.00,,,0.00,Wunderground v.1.15,2013-03-19 19:10:00,
2013-03-19 15:12:00,46.5,23.4,30.16,NW,306,9.0,12.0,40,0.00,,,0.00,Wunderground v.1.15,2013-03-19 19:12:00,
2013-03-19 15:15:00,46.4,22.8,30.16,North,3,5.0,12.0,39,0.00,,,0.00,Wunderground v.1.15,2013-03-19 19:15:00,
2013-03-19 15:16:00,46.4,22.8,30.16,NW,312,11.0,14.0,39,0.00,,,0.00,Wunderground v.1.15,2013-03-19 19:16:00,
2013-03-19 15:17:00,46.3,22.0,30.15,NW,314,5.0,14.0,38,0.00,,,0.00,Wunderground v.1.15,2013-03-19 19:17:00,
2013-03-19 15:20:00,46.5,24.6,30.16,WNW,286,6.0,7.0,42,0.00,,,0.00,Wunderground v.1.15,2013-03-19 19:20:00,
2013-03-19 15:22:00,46.5,23.4,30.15,WNW,290,9.0,13.0,40,0.00,,,0.00,Wunderground v.1.15,2013-03-19 19:22:00,
2013-03-19 15:25:00,46.7,24.2,30.16,NW,316,10.0,13.0,41,0.00,,,0.00,Wunderground v.1.15,2013-03-19 19:25:00,
2013-03-19 15:26:00,46.7,24.2,30.16,North,353,10.0,13.0,41,0.00,,,0.00,Wunderground v.1.15,2013-03-19 19:26:00,
2013-03-19 15:27:00,46.8,24.3,30.16,WNW,299,9.0,13.0,41,0.00,,,0.00,Wunderground v.1.15,2013-03-19 19:27:00,
2013-03-19 15:28:00,46.8,23.1,30.16,NW,321,6.0,13.0,39,0.00,,,0.00,Wunderground v.1.15,2013-03-19 19:28:00,
2013-03-19 15:30:00,46.6,22.9,30.15,NW,313,8.0,14.0,39,0.00,,,0.00,Wunderground v.1.15,2013-03-19 19:30:00,
2013-03-19 15:31:00,46.5,22.8,30.15,NNW,329,5.0,14.0,39,0.00,,,0.00,Wunderground v.1.15,2013-03-19 19:31:00,
2013-03-19 15:32:00,46.4,22.8,30.15,North,357,6.0,14.0,39,0.00,,,0.00,Wunderground v.1.15,2013-03-19 19:32:00,
2013-03-19 15:33:00,46.4,23.9,30.16,North,359,4.0,14.0,41,0.00,,,0.00,Wunderground v.1.15,2013-03-19 19:33:00,
2013-03-19 15:35:00,46.5,22.2,30.15,WNW,290,9.0,18.0,38,0.00,,,0.00,Wunderground v.1.15,2013-03-19 19:35:00,
2013-03-19 15:37:00,46.4,22.8,30.16,WNW,291,13.0,18.0,39,0.00,,,0.00,Wunderground v.1.15,2013-03-19 19:37:00,
2013-03-19 15:38:00,46.4,23.4,30.16,WNW,303,6.0,18.0,40,0.00,,,0.00,Wunderground v.1.15,2013-03-19 19:38:00,
2013-03-19 15:40:00,46.7,23.0,30.16,NNW,334,5.0,11.0,39,0.00,,,0.00,Wunderground v.1.15,2013-03-19 19:40:00,
2013-03-19 15:42:00,46.9,22.6,30.16,NW,319,7.0,11.0,38,0.00,,,0.00,Wunderground v.1.15,2013-03-19 19:42:00,
2013-03-19 15:43:00,46.9,23.2,30.16,NNW,338,6.0,14.0,39,0.00,,,0.00,Wunderground v.1.15,2013-03-19 19:43:00,
2013-03-19 15:46:00,46.8,22.5,30.16,NW,314,5.0,14.0,38,0.00,,,0.00,Wunderground v.1.15,2013-03-19 19:46:00,
2013-03-19 15:47:00,46.9,22.6,30.16,WNW,290,7.0,14.0,38,0.00,,,0.00,Wunderground v.1.15,2013-03-19 19:47:00,
2013-03-19 15:48:00,46.8,21.2,30.16,NNW,330,3.0,14.0,36,0.00,,,0.00,Wunderground v.1.15,2013-03-19 19:48:00,
2013-03-19 15:53:00,46.4,22.1,30.16,NW,319,5.0,17.0,38,0.00,,,0.00,Wunderground v.1.15,2013-03-19 19:53:00,
2013-03-19 15:58:00,46.5,22.2,30.16,NNW,337,2.0,17.0,38,0.00,,,0.00,Wunderground v.1.15,2013-03-19 19:58:00,
2013-03-19 15:59:00,46.6,23.5,30.16,NW,313,10.0,17.0,40,0.00,,,0.00,Wunderground v.1.15,2013-03-19 19:59:00,
2013-03-19 16:03:00,46.8,21.9,30.16,NNE,31,5.0,14.0,37,0.00,,,0.00,Wunderground v.1.15,2013-03-19 20:03:00,
2013-03-19 16:04:00,46.9,21.3,30.16,NNW,343,5.0,20.0,36,0.00,,,0.00,Wunderground v.1.15,2013-03-19 20:04:00,
2013-03-19 16:08:00,47.1,23.4,30.16,WNW,291,5.0,20.0,39,0.00,,,0.00,Wunderground v.1.15,2013-03-19 20:08:00,
2013-03-19 16:09:00,47.2,22.2,30.16,NW,309,2.0,20.0,37,0.00,,,0.00,Wunderground v.1.15,2013-03-19 20:09:00,
2013-03-19 16:13:00,47.6,23.2,30.16,NW,317,3.0,11.0,38,0.00,,,0.00,Wunderground v.1.15,2013-03-19 20:13:00,
2013-03-19 16:14:00,47.7,25.7,30.16,NW,319,5.0,11.0,42,0.00,,,0.00,Wunderground v.1.15,2013-03-19 20:14:00,
2013-03-19 16:18:00,47.7,22.7,30.16,NNE,13,7.0,15.0,37,0.00,,,0.00,Wunderground v.1.15,2013-03-19 20:18:00,
2013-03-19 16:19:00,47.6,22.6,30.16,North,356,5.0,15.0,37,0.00,,,0.00,Wunderground v.1.15,2013-03-19 20:19:00,
2013-03-19 16:23:00,47.5,23.7,30.16,NW,322,2.0,11.0,39,0.00,,,0.00,Wunderground v.1.15,2013-03-19 20:23:00,
2013-03-19 16:24:00,47.5,23.7,30.16,NW,316,5.0,11.0,39,0.00,,,0.00,Wunderground v.1.15,2013-03-19 20:24:00,
2013-03-19 16:28:00,47.7,23.3,30.16,NW,317,12.0,12.0,38,0.00,,,0.00,Wunderground v.1.15,2013-03-19 20:28:00,
2013-03-19 16:29:00,47.8,23.4,30.16,NNW,343,12.0,14.0,38,0.00,,,0.00,Wunderground v.1.15,2013-03-19 20:29:00,
2013-03-19 16:33:00,47.5,21.2,30.16,North,353,10.0,14.0,35,0.00,,,0.00,Wunderground v.1.15,2013-03-19 20:33:00,
2013-03-19 16:34:00,47.4,21.7,30.16,NNW,336,6.0,14.0,36,0.00,,,0.00,Wunderground v.1.15,2013-03-19 20:34:00,
2013-03-19 16:35:00,47.4,21.7,30.16,NNW,344,6.0,14.0,36,0.00,,,0.00,Wunderground v.1.15,2013-03-19 20:35:00,
2013-03-19 16:38:00,47.2,22.2,30.16,NW,307,6.0,14.0,37,0.00,,,0.00,Wunderground v.1.15,2013-03-19 20:38:00,
2013-03-19 16:39:00,47.2,24.1,30.16,WNW,288,3.0,14.0,40,0.00,,,0.00,Wunderground v.1.15,2013-03-19 20:39:00,
2013-03-19 16:40:00,47.2,24.1,30.16,NW,309,5.0,7.0,40,0.00,,,0.00,Wunderground v.1.15,2013-03-19 20:40:00,
2013-03-19 16:43:00,47.5,23.1,30.17,NW,305,13.0,16.0,38,0.00,,,0.00,Wunderground v.1.15,2013-03-19 20:43:00,
2013-03-19 16:44:00,47.4,21.1,30.17,WNW,298,8.0,16.0,35,0.00,,,0.00,Wunderground v.1.15,2013-03-19 20:44:00,
2013-03-19 16:45:00,47.4,21.1,30.17,WNW,282,8.0,16.0,35,0.00,,,0.00,Wunderground v.1.15,2013-03-19 20:45:00,
2013-03-19 16:48:00,47.5,21.2,30.16,NW,315,10.0,16.0,35,0.00,,,0.00,Wunderground v.1.15,2013-03-19 20:48:00,
2013-03-19 16:49:00,47.4,21.1,30.16,NW,319,6.0,16.0,35,0.00,,,0.00,Wunderground v.1.15,2013-03-19 20:49:00,
2013-03-19 16:50:00,47.4,21.1,30.16,WNW,288,5.0,16.0,35,0.00,,,0.00,Wunderground v.1.15,2013-03-19 20:50:00,
2013-03-19 16:54:00,47.6,24.4,30.16,NW,305,5.0,13.0,40,0.00,,,0.00,Wunderground v.1.15,2013-03-19 20:54:00,
2013-03-19 16:55:00,47.6,21.3,30.16,WNW,296,9.0,13.0,35,0.00,,,0.00,Wunderground v.1.15,2013-03-19 20:55:00,
2013-03-19 16:59:00,47.7,22.0,30.16,WNW,296,5.0,15.0,36,0.00,,,0.00,Wunderground v.1.15,2013-03-19 20:59:00,
2013-03-19 17:00:00,47.7,22.0,30.16,NW,319,3.0,15.0,36,0.00,,,0.00,Wunderground v.1.15,2013-03-19 21:00:00,
2013-03-19 17:01:00,47.7,22.0,30.16,NNW,345,10.0,12.0,36,0.00,,,0.00,Wunderground v.1.15,2013-03-19 21:01:00,
2013-03-19 17:04:00,47.4,21.7,30.16,NW,322,6.0,13.0,36,0.00,,,0.00,Wunderground v.1.15,2013-03-19 21:04:00,
2013-03-19 17:05:00,47.4,21.7,30.16,WNW,299,5.0,13.0,36,0.00,,,0.00,Wunderground v.1.15,2013-03-19 21:05:00,
2013-03-19 17:06:00,47.4,22.4,30.16,NW,305,4.0,13.0,37,0.00,,,0.00,Wunderground v.1.15,2013-03-19 21:06:00,
2013-03-19 17:09:00,47.4,23.7,30.16,WNW,299,5.0,13.0,39,0.00,,,0.00,Wunderground v.1.15,2013-03-19 21:09:00,
2013-03-19 17:10:00,47.4,23.7,30.16,NW,317,6.0,7.0,39,0.00,,,0.00,Wunderground v.1.15,2013-03-19 21:10:00,
2013-03-19 17:11:00,47.5,23.1,30.16,NW,323,4.0,13.0,38,0.00,,,0.00,Wunderground v.1.15,2013-03-19 21:11:00,
2013-03-19 17:14:00,47.4,21.7,30.16,NW,317,6.0,17.0,36,0.00,,,0.00,Wunderground v.1.15,2013-03-19 21:14:00,
2013-03-19 17:15:00,47.4,22.4,30.16,NNW,348,5.0,17.0,37,0.00,,,0.00,Wunderground v.1.15,2013-03-19 21:15:00,
2013-03-19 17:16:00,47.4,21.1,30.16,NW,317,6.0,17.0,35,0.00,,,0.00,Wunderground v.1.15,2013-03-19 21:16:00,
2013-03-19 17:19:00,47.2,20.9,30.17,North,349,7.0,17.0,35,0.00,,,0.00,Wunderground v.1.15,2013-03-19 21:19:00,
2013-03-19 17:20:00,47.2,21.6,30.17,NW,323,10.0,10.0,36,0.00,,,0.00,Wunderground v.1.15,2013-03-19 21:20:00,
2013-03-19 17:21:00,47.2,20.9,30.17,NNW,328,4.0,10.0,35,0.00,,,0.00,Wunderground v.1.15,2013-03-19 21:21:00,
2013-03-19 17:25:00,46.9,20.0,30.17,NNW,344,6.0,12.0,34,0.00,,,0.00,Wunderground v.1.15,2013-03-19 21:25:00,
2013-03-19 17:26:00,46.8,20.6,30.17,NNW,332,5.0,12.0,35,0.00,,,0.00,Wunderground v.1.15,2013-03-19 21:26:00,
2013-03-19 17:30:00,46.9,21.3,30.17,North,6,4.0,7.0,36,0.00,,,0.00,Wunderground v.1.15,2013-03-19 21:30:00,
2013-03-19 17:31:00,47.0,21.4,30.17,WNW,292,3.0,7.0,36,0.00,,,0.00,Wunderground v.1.15,2013-03-19 21:31:00,
2013-03-19 17:35:00,47.3,22.3,30.17,WSW,249,4.0,11.0,37,0.00,,,0.00,Wunderground v.1.15,2013-03-19 21:35:00,
2013-03-19 17:36:00,47.4,21.1,30.17,WNW,293,4.0,11.0,35,0.00,,,0.00,Wunderground v.1.15,2013-03-19 21:36:00,
2013-03-19 17:37:00,47.4,21.1,30.17,WNW,295,2.0,11.0,35,0.00,,,0.00,Wunderground v.1.15,2013-03-19 21:37:00,
2013-03-19 17:40:00,47.4,23.0,30.17,NW,307,4.0,6.0,38,0.00,,,0.00,Wunderground v.1.15,2013-03-19 21:40:00,
2013-03-19 17:42:00,47.4,22.4,30.17,NNW,339,4.0,11.0,37,0.00,,,0.00,Wunderground v.1.15,2013-03-19 21:42:00,
2013-03-19 17:46:00,47.2,20.9,30.17,NW,307,6.0,13.0,35,0.00,,,0.00,Wunderground v.1.15,2013-03-19 21:46:00,
2013-03-19 17:47:00,47.2,22.2,30.16,NW,323,6.0,13.0,37,0.00,,,0.00,Wunderground v.1.15,2013-03-19 21:47:00,
2013-03-19 17:48:00,47.1,20.8,30.17,NW,307,6.0,13.0,35,0.00,,,0.00,Wunderground v.1.15,2013-03-19 21:48:00,
2013-03-19 17:51:00,47.2,22.9,30.16,WNW,303,6.0,8.0,38,0.00,,,0.00,Wunderground v.1.15,2013-03-19 21:51:00,
2013-03-19 17:52:00,47.2,21.6,30.16,WNW,286,7.0,8.0,36,0.00,,,0.00,Wunderground v.1.15,2013-03-19 21:52:00,
2013-03-19 17:53:00,47.3,21.7,30.17,WNW,295,6.0,8.0,36,0.00,,,0.00,Wunderground v.1.15,2013-03-19 21:53:00,
2013-03-19 17:57:00,47.4,22.4,30.16,NW,317,3.0,15.0,37,0.00,,,0.00,Wunderground v.1.15,2013-03-19 21:57:00,
2013-03-19 17:58:00,47.4,23.0,30.16,NW,311,3.0,15.0,38,0.00,,,0.00,Wunderground v.1.15,2013-03-19 21:58:00,
2013-03-19 18:02:00,46.7,19.8,30.17,North,7,14.0,14.0,34,0.00,,,0.00,Wunderground v.1.15,2013-03-19 22:02:00,
2013-03-19 18:03:00,46.6,19.7,30.16,NNW,327,11.0,14.0,34,0.00,,,0.00,Wunderground v.1.15,2013-03-19 22:03:00,
2013-03-19 18:07:00,46.3,21.4,30.16,WNW,301,10.0,14.0,37,0.00,,,0.00,Wunderground v.1.15,2013-03-19 22:07:00,
2013-03-19 18:08:00,46.3,21.4,30.16,NW,323,3.0,14.0,37,0.00,,,0.00,Wunderground v.1.15,2013-03-19 22:08:00,
2013-03-19 18:12:00,46.3,21.4,30.16,West,269,4.0,12.0,37,0.00,,,0.00,Wunderground v.1.15,2013-03-19 22:12:00,
2013-03-19 18:13:00,46.3,22.0,30.16,WNW,291,9.0,12.0,38,0.00,,,0.00,Wunderground v.1.15,2013-03-19 22:13:00,
2013-03-19 18:17:00,46.3,21.4,30.16,NW,322,6.0,16.0,37,0.00,,,0.00,Wunderground v.1.15,2013-03-19 22:17:00,
2013-03-19 18:18:00,46.3,20.8,30.17,NW,314,13.0,16.0,36,0.00,,,0.00,Wunderground v.1.15,2013-03-19 22:18:00,
2013-03-19 18:23:00,46.1,21.2,30.17,NW,311,4.0,7.0,37,0.00,,,0.00,Wunderground v.1.15,2013-03-19 22:23:00,
2013-03-19 18:24:00,46.1,21.9,30.16,NW,322,2.0,7.0,38,0.00,,,0.00,Wunderground v.1.15,2013-03-19 22:24:00,
2013-03-19 18:28:00,46.1,21.9,30.16,WNW,297,3.0,7.0,38,0.00,,,0.00,Wunderground v.1.15,2013-03-19 22:28:00,
2013-03-19 18:29:00,46.1,23.7,30.17,NW,321,4.0,10.0,41,0.00,,,0.00,Wunderground v.1.15,2013-03-19 22:29:00,
2013-03-19 18:33:00,45.7,22.1,30.16,NNW,327,7.0,13.0,39,0.00,,,0.00,Wunderground v.1.15,2013-03-19 22:33:00,
2013-03-19 18:34:00,45.6,22.0,30.16,NNW,333,12.0,14.0,39,0.00,,,0.00,Wunderground v.1.15,2013-03-19 22:34:00,
2013-03-19 18:38:00,45.1,22.2,30.16,WNW,303,6.0,14.0,40,0.00,,,0.00,Wunderground v.1.15,2013-03-19 22:38:00,
2013-03-19 18:39:00,45.0,22.1,30.17,WNW,288,6.0,14.0,40,0.00,,,0.00,Wunderground v.1.15,2013-03-19 22:39:00,
2013-03-19 18:44:00,44.8,20.1,30.17,North,9,12.0,12.0,37,0.00,,,0.00,Wunderground v.1.15,2013-03-19 22:44:00,
2013-03-19 18:45:00,44.7,20.0,30.17,North,353,6.0,18.0,37,0.00,,,0.00,Wunderground v.1.15,2013-03-19 22:45:00,
2013-03-19 18:49:00,44.4,19.1,30.17,NNW,343,12.0,18.0,36,0.00,,,0.00,Wunderground v.1.15,2013-03-19 22:49:00,
2013-03-19 18:50:00,44.3,18.3,30.17,NNW,330,8.0,8.0,35,0.00,,,0.00,Wunderground v.1.15,2013-03-19 22:50:00,
2013-03-19 18:51:00,44.3,18.3,30.17,NNW,342,3.0,10.0,35,0.00,,,0.00,Wunderground v.1.15,2013-03-19 22:51:00,
2013-03-19 18:54:00,44.1,19.5,30.17,NNW,341,4.0,12.0,37,0.00,,,0.00,Wunderground v.1.15,2013-03-19 22:54:00,
2013-03-19 18:55:00,44.0,18.1,30.17,WNW,301,6.0,12.0,35,0.00,,,0.00,Wunderground v.1.15,2013-03-19 22:55:00,
2013-03-19 18:56:00,44.0,20.0,30.17,North,355,5.0,14.0,38,0.00,,,0.00,Wunderground v.1.15,2013-03-19 22:56:00,
2013-03-19 18:59:00,43.8,17.9,30.17,NNW,348,5.0,14.0,35,0.00,,,0.00,Wunderground v.1.15,2013-03-19 22:59:00,
2013-03-19 19:00:00,43.8,18.5,30.17,NNW,334,5.0,14.0,36,0.00,,,0.00,Wunderground v.1.15,2013-03-19 23:00:00,
2013-03-19 19:02:00,43.7,18.5,30.17,NW,320,7.0,8.0,36,0.00,,,0.00,Wunderground v.1.15,2013-03-19 23:02:00,
2013-03-19 19:04:00,43.7,19.1,30.17,NNW,331,2.0,8.0,37,0.00,,,0.00,Wunderground v.1.15,2013-03-19 23:04:00,
2013-03-19 19:05:00,43.7,19.7,30.17,NNW,330,2.0,8.0,38,0.00,,,0.00,Wunderground v.1.15,2013-03-19 23:05:00,
2013-03-19 19:07:00,43.6,19.0,30.17,NNW,332,3.0,8.0,37,0.00,,,0.00,Wunderground v.1.15,2013-03-19 23:07:00,
2013-03-19 19:09:00,43.6,20.8,30.18,NNW,335,0.0,8.0,40,0.00,,,0.00,Wunderground v.1.15,2013-03-19 23:09:00,
2013-03-19 19:10:00,43.6,19.6,30.18,NNW,334,1.0,3.0,38,0.00,,,0.00,Wunderground v.1.15,2013-03-19 23:10:00,
2013-03-19 19:11:00,43.5,19.5,30.18,WNW,296,3.0,5.0,38,0.00,,,0.00,Wunderground v.1.15,2013-03-19 23:11:00,
2013-03-19 19:12:00,43.5,19.5,30.18,NW,321,6.0,9.0,38,0.00,,,0.00,Wunderground v.1.15,2013-03-19 23:12:00,
2013-03-19 19:14:00,43.4,18.8,30.18,NW,310,0.0,9.0,37,0.00,,,0.00,Wunderground v.1.15,2013-03-19 23:14:00,
2013-03-19 19:15:00,43.4,19.5,30.18,NW,310,0.0,9.0,38,0.00,,,0.00,Wunderground v.1.15,2013-03-19 23:15:00,
2013-03-19 19:16:00,43.4,19.5,30.18,NW,310,0.0,9.0,38,0.00,,,0.00,Wunderground v.1.15,2013-03-19 23:16:00,
2013-03-19 19:17:00,43.4,19.5,30.18,NW,323,1.0,9.0,38,0.00,,,0.00,Wunderground v.1.15,2013-03-19 23:17:00,
2013-03-19 19:20:00,43.3,20.6,30.18,NW,324,4.0,4.0,40,0.00,,,0.00,Wunderground v.1.15,2013-03-19 23:20:00,
2013-03-19 19:21:00,43.3,18.7,30.18,NW,321,3.0,5.0,37,0.00,,,0.00,Wunderground v.1.15,2013-03-19 23:21:00,
2013-03-19 19:22:00,43.3,19.4,30.18,NW,321,0.0,5.0,38,0.00,,,0.00,Wunderground v.1.15,2013-03-19 23:22:00,
2013-03-19 19:25:00,43.2,19.9,30.18,NW,308,1.0,5.0,39,0.00,,,0.00,Wunderground v.1.15,2013-03-19 23:25:00,
2013-03-19 19:27:00,43.2,20.5,30.18,North,355,4.0,6.0,40,0.00,,,0.00,Wunderground v.1.15,2013-03-19 23:27:00,
2013-03-19 19:30:00,43.1,21.0,30.18,NW,309,4.0,4.0,41,0.00,,,0.00,Wunderground v.1.15,2013-03-19 23:30:00,
2013-03-19 19:32:00,43.1,21.5,30.18,NW,309,1.0,4.0,42,0.00,,,0.00,Wunderground v.1.15,2013-03-19 23:32:00,
2013-03-19 19:33:00,43.0,21.4,30.18,NW,318,2.0,5.0,42,0.00,,,0.00,Wunderground v.1.15,2013-03-19 23:33:00,
2013-03-19 19:35:00,42.9,21.4,30.18,NW,312,0.0,5.0,42,0.00,,,0.00,Wunderground v.1.15,2013-03-19 23:35:00,
2013-03-19 19:37:00,42.9,21.4,30.18,NW,318,3.0,8.0,42,0.00,,,0.00,Wunderground v.1.15,2013-03-19 23:37:00,
2013-03-19 19:38:00,42.8,21.3,30.18,NW,315,3.0,8.0,42,0.00,,,0.00,Wunderground v.1.15,2013-03-19 23:38:00,
2013-03-19 19:40:00,42.8,21.8,30.18,West,263,2.0,5.0,43,0.00,,,0.00,Wunderground v.1.15,2013-03-19 23:40:00,
2013-03-19 19:41:00,42.8,21.8,30.18,West,263,2.0,5.0,43,0.00,,,0.00,Wunderground v.1.15,2013-03-19 23:41:00,
2013-03-19 19:42:00,42.7,23.3,30.18,West,269,4.0,5.0,46,0.00,,,0.00,Wunderground v.1.15,2013-03-19 23:42:00,
2013-03-19 19:43:00,42.7,21.2,30.18,NNW,340,5.0,8.0,42,0.00,,,0.00,Wunderground v.1.15,2013-03-19 23:43:00,
2013-03-19 19:46:00,42.7,20.6,30.18,West,272,4.0,8.0,41,0.00,,,0.00,Wunderground v.1.15,2013-03-19 23:46:00,
2013-03-19 19:47:00,42.6,19.3,30.18,NW,326,3.0,8.0,39,0.00,,,0.00,Wunderground v.1.15,2013-03-19 23:47:00,
2013-03-19 19:48:00,42.6,19.9,30.18,NW,325,4.0,9.0,40,0.00,,,0.00,Wunderground v.1.15,2013-03-19 23:48:00,
2013-03-19 19:51:00,42.5,19.8,30.18,WNW,302,5.0,10.0,40,0.00,,,0.00,Wunderground v.1.15,2013-03-19 23:51:00,
2013-03-19 19:52:00,42.5,19.3,30.18,NW,315,4.0,10.0,39,0.00,,,0.00,Wunderground v.1.15,2013-03-19 23:52:00,
2013-03-19 19:53:00,42.5,19.3,30.18,NW,315,1.0,10.0,39,0.00,,,0.00,Wunderground v.1.15,2013-03-19 23:53:00,
2013-03-19 19:57:00,42.3,19.7,30.18,WNW,298,6.0,10.0,40,0.00,,,0.00,Wunderground v.1.15,2013-03-19 23:57:00,
2013-03-19 19:58:00,42.3,20.2,30.18,NW,319,4.0,10.0,41,0.00,,,0.00,Wunderground v.1.15,2013-03-19 23:58:00,
2013-03-19 20:02:00,42.2,19.6,30.18,NNW,334,2.0,6.0,40,0.00,,,0.00,Wunderground v.1.15,2013-03-20 00:02:00,
2013-03-19 20:03:00,42.2,20.2,30.18,NNW,333,0.0,6.0,41,0.00,,,0.00,Wunderground v.1.15,2013-03-20 00:03:00,
2013-03-19 20:07:00,42.0,20.0,30.18,NW,323,3.0,6.0,41,0.00,,,0.00,Wunderground v.1.15,2013-03-20 00:07:00,
2013-03-19 20:08:00,42.0,19.4,30.18,NNW,341,2.0,6.0,40,0.00,,,0.00,Wunderground v.1.15,2013-03-20 00:08:00,
2013-03-19 20:09:00,41.9,19.9,30.18,NNW,341,2.0,6.0,41,0.00,,,0.00,Wunderground v.1.15,2013-03-20 00:09:00,
2013-03-19 20:12:00,41.8,19.8,30.18,NW,321,4.0,5.0,41,0.00,,,0.00,Wunderground v.1.15,2013-03-20 00:12:00,
2013-03-19 20:13:00,41.8,19.2,30.19,NW,323,3.0,5.0,40,0.00,,,0.00,Wunderground v.1.15,2013-03-20 00:13:00,
2013-03-19 20:14:00,41.7,19.1,30.19,NW,323,4.0,5.0,40,0.00,,,0.00,Wunderground v.1.15,2013-03-20 00:14:00,
2013-03-19 20:18:00,41.6,19.6,30.19,NW,318,1.0,5.0,41,0.00,,,0.00,Wunderground v.1.15,2013-03-20 00:18:00,
2013-03-19 20:19:00,41.5,19.5,30.19,NW,318,0.0,5.0,41,0.00,,,0.00,Wunderground v.1.15,2013-03-20 00:19:00,
2013-03-19 20:24:00,41.3,19.3,30.19,NW,318,0.0,4.0,41,0.00,,,0.00,Wunderground v.1.15,2013-03-20 00:24:00,
2013-03-19 20:29:00,41.1,19.7,30.19,NW,318,2.0,4.0,42,0.00,,,0.00,Wunderground v.1.15,2013-03-20 00:29:00,
2013-03-19 20:30:00,41.0,19.6,30.19,NW,318,0.0,1.0,42,0.00,,,0.00,Wunderground v.1.15,2013-03-20 00:30:00,
2013-03-19 20:34:00,40.7,19.9,30.19,West,263,0.0,5.0,43,0.00,,,0.00,Wunderground v.1.15,2013-03-20 00:34:00,
2013-03-19 20:35:00,40.7,19.9,30.19,West,263,0.0,5.0,43,0.00,,,0.00,Wunderground v.1.15,2013-03-20 00:35:00,
2013-03-19 20:39:00,40.5,20.3,30.19,WNW,284,0.0,5.0,44,0.00,,,0.00,Wunderground v.1.15,2013-03-20 00:39:00,
2013-03-19 20:40:00,40.4,20.2,30.19,NNE,29,0.0,1.0,44,0.00,,,0.00,Wunderground v.1.15,2013-03-20 00:40:00,
2013-03-19 20:44:00,40.3,19.5,30.19,NNW,341,0.0,2.0,43,0.00,,,0.00,Wunderground v.1.15,2013-03-20 00:44:00,
2013-03-19 20:45:00,40.2,19.5,30.19,NNW,340,0.0,3.0,43,0.00,,,0.00,Wunderground v.1.15,2013-03-20 00:45:00,
2013-03-19 20:49:00,40.0,19.3,30.19,WNW,290,0.0,3.0,43,0.00,,,0.00,Wunderground v.1.15,2013-03-20 00:49:00,
2013-03-19 20:50:00,39.9,19.7,30.19,WNW,291,0.0,0.0,44,0.00,,,0.00,Wunderground v.1.15,2013-03-20 00:50:00,
2013-03-19 20:54:00,39.7,19.5,30.19,WNW,291,0.0,1.0,44,0.00,,,0.00,Wunderground v.1.15,2013-03-20 00:54:00,
2013-03-19 20:55:00,39.7,20.6,30.19,WNW,291,2.0,3.0,46,0.00,,,0.00,Wunderground v.1.15,2013-03-20 00:55:00,
2013-03-19 20:59:00,39.7,20.6,30.19,WNW,291,0.0,3.0,46,0.00,,,0.00,Wunderground v.1.15,2013-03-20 00:59:00,
2013-03-19 21:00:00,39.6,20.5,30.19,WNW,291,0.0,0.0,46,0.00,,,0.00,Wunderground v.1.15,2013-03-20 01:00:00,
2013-03-19 21:04:00,39.5,20.9,30.19,WNW,291,0.0,1.0,47,0.00,,,0.00,Wunderground v.1.15,2013-03-20 01:04:00,
2013-03-19 21:05:00,39.5,20.9,30.19,WNW,291,0.0,1.0,47,0.00,,,0.00,Wunderground v.1.15,2013-03-20 01:05:00,
2013-03-19 21:09:00,39.3,20.2,30.19,WNW,291,0.0,3.0,46,0.00,,,0.00,Wunderground v.1.15,2013-03-20 01:09:00,
2013-03-19 21:10:00,39.3,20.2,30.19,WNW,291,0.0,0.0,46,0.00,,,0.00,Wunderground v.1.15,2013-03-20 01:10:00,
2013-03-19 21:14:00,39.2,21.1,30.20,WNW,291,0.0,1.0,48,0.00,,,0.00,Wunderground v.1.15,2013-03-20 01:14:00,
2013-03-19 21:15:00,39.1,21.0,30.19,WNW,291,0.0,1.0,48,0.00,,,0.00,Wunderground v.1.15,2013-03-20 01:15:00,
2013-03-19 21:19:00,38.9,20.4,30.19,WNW,291,0.0,1.0,47,0.00,,,0.00,Wunderground v.1.15,2013-03-20 01:19:00,
2013-03-19 21:20:00,38.9,20.4,30.19,WNW,291,0.0,0.0,47,0.00,,,0.00,Wunderground v.1.15,2013-03-20 01:20:00,
2013-03-19 21:21:00,38.9,20.4,30.19,WNW,291,0.0,0.0,47,0.00,,,0.00,Wunderground v.1.15,2013-03-20 01:21:00,
2013-03-19 21:24:00,38.7,20.7,30.19,WNW,291,0.0,0.0,48,0.00,,,0.00,Wunderground v.1.15,2013-03-20 01:24:00,
2013-03-19 21:25:00,38.7,20.7,30.19,WNW,291,0.0,0.0,48,0.00,,,0.00,Wunderground v.1.15,2013-03-20 01:25:00,
2013-03-19 21:26:00,38.6,20.6,30.19,WNW,291,0.0,0.0,48,0.00,,,0.00,Wunderground v.1.15,2013-03-20 01:26:00,
2013-03-19 21:30:00,38.4,20.4,30.19,WNW,291,1.0,2.0,48,0.00,,,0.00,Wunderground v.1.15,2013-03-20 01:30:00,
2013-03-19 21:32:00,38.3,20.3,30.19,WNW,291,0.0,2.0,48,0.00,,,0.00,Wunderground v.1.15,2013-03-20 01:32:00,
2013-03-19 21:35:00,38.2,20.7,30.19,WNW,291,0.0,2.0,49,0.00,,,0.00,Wunderground v.1.15,2013-03-20 01:35:00,
2013-03-19 21:37:00,38.1,20.6,30.19,WNW,291,0.0,2.0,49,0.00,,,0.00,Wunderground v.1.15,2013-03-20 01:37:00,
2013-03-19 21:40:00,37.9,20.4,30.19,WNW,291,0.0,0.0,49,0.00,,,0.00,Wunderground v.1.15,2013-03-20 01:40:00,
2013-03-19 21:41:00,37.9,20.4,30.19,WNW,291,0.0,0.0,49,0.00,,,0.00,Wunderground v.1.15,2013-03-20 01:41:00,
2013-03-19 21:42:00,37.9,20.9,30.19,WNW,291,0.0,0.0,50,0.00,,,0.00,Wunderground v.1.15,2013-03-20 01:42:00,
2013-03-19 21:45:00,37.8,20.8,30.19,WNW,291,0.0,0.0,50,0.00,,,0.00,Wunderground v.1.15,2013-03-20 01:45:00,
2013-03-19 21:46:00,37.8,20.8,30.19,WNW,291,0.0,0.0,50,0.00,,,0.00,Wunderground v.1.15,2013-03-20 01:46:00,
2013-03-19 21:47:00,37.7,20.7,30.19,WNW,291,0.0,0.0,50,0.00,,,0.00,Wunderground v.1.15,2013-03-20 01:47:00,
2013-03-19 21:48:00,37.7,20.7,30.19,WNW,291,0.0,0.0,50,0.00,,,0.00,Wunderground v.1.15,2013-03-20 01:48:00,
2013-03-19 21:50:00,37.5,21.0,30.19,WNW,291,0.0,0.0,51,0.00,,,0.00,Wunderground v.1.15,2013-03-20 01:50:00,
2013-03-19 21:51:00,37.5,21.0,30.19,WNW,291,0.0,0.0,51,0.00,,,0.00,Wunderground v.1.15,2013-03-20 01:51:00,
2013-03-19 21:53:00,37.5,21.0,30.19,WNW,291,0.0,0.0,51,0.00,,,0.00,Wunderground v.1.15,2013-03-20 01:53:00,
2013-03-19 21:56:00,37.4,21.4,30.19,WNW,291,0.0,1.0,52,0.00,,,0.00,Wunderground v.1.15,2013-03-20 01:56:00,
2013-03-19 21:58:00,37.3,20.8,30.19,WNW,291,0.0,1.0,51,0.00,,,0.00,Wunderground v.1.15,2013-03-20 01:58:00,
2013-03-19 22:01:00,37.2,21.2,30.20,WNW,291,0.0,0.0,52,0.00,,,0.00,Wunderground v.1.15,2013-03-20 02:01:00,
2013-03-19 22:03:00,37.1,21.1,30.20,WNW,291,0.0,0.0,52,0.00,,,0.00,Wunderground v.1.15,2013-03-20 02:03:00,
2013-03-19 22:07:00,36.9,20.9,30.20,WNW,291,0.0,0.0,52,0.00,,,0.00,Wunderground v.1.15,2013-03-20 02:07:00,
2013-03-19 22:08:00,36.9,20.4,30.20,WNW,291,0.0,0.0,51,0.00,,,0.00,Wunderground v.1.15,2013-03-20 02:08:00,
2013-03-19 22:12:00,36.8,21.7,30.20,WNW,291,0.0,0.0,54,0.00,,,0.00,Wunderground v.1.15,2013-03-20 02:12:00,
2013-03-19 22:13:00,36.7,21.6,30.19,WNW,291,0.0,0.0,54,0.00,,,0.00,Wunderground v.1.15,2013-03-20 02:13:00,
2013-03-19 22:17:00,36.5,21.0,30.19,WNW,291,0.0,0.0,53,0.00,,,0.00,Wunderground v.1.15,2013-03-20 02:17:00,
2013-03-19 22:18:00,36.4,20.4,30.19,WNW,291,0.0,0.0,52,0.00,,,0.00,Wunderground v.1.15,2013-03-20 02:18:00,
2013-03-19 22:22:00,36.2,20.7,30.19,WNW,291,0.0,0.0,53,0.00,,,0.00,Wunderground v.1.15,2013-03-20 02:22:00,
2013-03-19 22:23:00,36.2,20.7,30.19,WNW,291,0.0,0.0,53,0.00,,,0.00,Wunderground v.1.15,2013-03-20 02:23:00,
2013-03-19 22:27:00,36.0,22.2,30.19,WNW,291,0.0,0.0,57,0.00,,,0.00,Wunderground v.1.15,2013-03-20 02:27:00,
2013-03-19 22:28:00,36.0,22.2,30.19,WNW,291,0.0,0.0,57,0.00,,,0.00,Wunderground v.1.15,2013-03-20 02:28:00,
2013-03-19 22:32:00,35.6,21.4,30.20,WNW,291,0.0,0.0,56,0.00,,,0.00,Wunderground v.1.15,2013-03-20 02:32:00,
2013-03-19 22:33:00,35.5,20.9,30.19,WNW,291,0.0,0.0,55,0.00,,,0.00,Wunderground v.1.15,2013-03-20 02:33:00,
2013-03-19 22:34:00,35.5,20.9,30.19,WNW,291,0.0,0.0,55,0.00,,,0.00,Wunderground v.1.15,2013-03-20 02:34:00,
2013-03-19 22:37:00,35.2,21.1,30.20,WNW,291,0.0,0.0,56,0.00,,,0.00,Wunderground v.1.15,2013-03-20 02:37:00,
2013-03-19 22:38:00,35.2,21.1,30.20,WNW,291,0.0,0.0,56,0.00,,,0.00,Wunderground v.1.15,2013-03-20 02:38:00,
2013-03-19 22:39:00,35.2,21.1,30.20,WNW,291,0.0,0.0,56,0.00,,,0.00,Wunderground v.1.15,2013-03-20 02:39:00,
2013-03-19 22:43:00,35.0,20.9,30.20,WNW,291,0.0,0.0,56,0.00,,,0.00,Wunderground v.1.15,2013-03-20 02:43:00,
2013-03-19 22:44:00,34.9,21.2,30.20,WNW,291,0.0,0.0,57,0.00,,,0.00,Wunderground v.1.15,2013-03-20 02:44:00,
2013-03-19 22:48:00,34.7,21.0,30.20,WNW,291,0.0,0.0,57,0.00,,,0.00,Wunderground v.1.15,2013-03-20 02:48:00,
2013-03-19 22:49:00,34.6,20.9,30.20,WNW,291,0.0,0.0,57,0.00,,,0.00,Wunderground v.1.15,2013-03-20 02:49:00,
2013-03-19 22:53:00,34.4,21.1,30.20,WNW,291,0.0,0.0,58,0.00,,,0.00,Wunderground v.1.15,2013-03-20 02:53:00,
2013-03-19 22:54:00,34.4,21.1,30.20,WNW,291,0.0,0.0,58,0.00,,,0.00,Wunderground v.1.15,2013-03-20 02:54:00,
2013-03-19 22:58:00,34.4,21.9,30.19,WNW,291,0.0,0.0,60,0.00,,,0.00,Wunderground v.1.15,2013-03-20 02:58:00,
2013-03-19 22:59:00,34.4,21.9,30.19,WNW,291,0.0,0.0,60,0.00,,,0.00,Wunderground v.1.15,2013-03-20 02:59:00,
2013-03-19 23:03:00,34.1,21.7,30.19,WNW,291,0.0,0.0,60,0.00,,,0.00,Wunderground v.1.15,2013-03-20 03:03:00,
2013-03-19 23:04:00,34.1,22.0,30.19,WNW,291,0.0,0.0,61,0.00,,,0.00,Wunderground v.1.15,2013-03-20 03:04:00,
2013-03-19 23:05:00,34.0,22.0,30.19,WNW,291,0.0,0.0,61,0.00,,,0.00,Wunderground v.1.15,2013-03-20 03:05:00,
2013-03-19 23:08:00,33.9,22.2,30.19,WNW,291,0.0,0.0,62,0.00,,,0.00,Wunderground v.1.15,2013-03-20 03:08:00,
2013-03-19 23:09:00,33.8,22.1,30.19,WNW,291,0.0,0.0,62,0.00,,,0.00,Wunderground v.1.15,2013-03-20 03:09:00,
2013-03-19 23:10:00,33.8,22.1,30.19,WNW,291,0.0,0.0,62,0.00,,,0.00,Wunderground v.1.15,2013-03-20 03:10:00,
2013-03-19 23:14:00,33.6,22.3,30.19,WNW,291,0.0,0.0,63,0.00,,,0.00,Wunderground v.1.15,2013-03-20 03:14:00,
2013-03-19 23:15:00,33.5,22.6,30.19,WNW,291,0.0,0.0,64,0.00,,,0.00,Wunderground v.1.15,2013-03-20 03:15:00,
2013-03-19 23:19:00,33.3,22.4,30.20,WNW,291,0.0,0.0,64,0.00,,,0.00,Wunderground v.1.15,2013-03-20 03:19:00,
2013-03-19 23:20:00,33.3,22.4,30.19,WNW,291,0.0,0.0,64,0.00,,,0.00,Wunderground v.1.15,2013-03-20 03:20:00,
2013-03-19 23:24:00,33.1,22.2,30.19,WNW,291,0.0,0.0,64,0.00,,,0.00,Wunderground v.1.15,2013-03-20 03:24:00,
2013-03-19 23:25:00,33.1,22.2,30.19,WNW,291,0.0,0.0,64,0.00,,,0.00,Wunderground v.1.15,2013-03-20 03:25:00,
2013-03-19 23:29:00,33.0,22.9,30.19,WNW,291,0.0,0.0,66,0.00,,,0.00,Wunderground v.1.15,2013-03-20 03:29:00,
2013-03-19 23:30:00,32.9,22.4,30.19,WNW,291,0.0,0.0,65,0.00,,,0.00,Wunderground v.1.15,2013-03-20 03:30:00,
2013-03-19 23:34:00,32.8,23.0,30.19,WNW,291,0.0,0.0,67,0.00,,,0.00,Wunderground v.1.15,2013-03-20 03:34:00,
2013-03-19 23:35:00,32.7,22.6,30.19,WNW,291,0.0,0.0,66,0.00,,,0.00,Wunderground v.1.15,2013-03-20 03:35:00,
2013-03-19 23:39:00,32.6,22.8,30.19,WNW,291,0.0,0.0,67,0.00,,,0.00,Wunderground v.1.15,2013-03-20 03:39:00,
2013-03-19 23:40:00,32.5,22.8,30.19,WNW,291,0.0,0.0,67,0.00,,,0.00,Wunderground v.1.15,2013-03-20 03:40:00,
2013-03-19 23:44:00,32.4,23.0,30.19,WNW,291,0.0,0.0,68,0.00,,,0.00,Wunderground v.1.15,2013-03-20 03:44:00,
2013-03-19 23:45:00,32.4,23.0,30.19,WNW,291,0.0,0.0,68,0.00,,,0.00,Wunderground v.1.15,2013-03-20 03:45:00,
2013-03-19 23:49:00,32.2,22.5,30.19,WNW,291,0.0,0.0,67,0.00,,,0.00,Wunderground v.1.15,2013-03-20 03:49:00,
2013-03-19 23:50:00,32.2,22.8,30.19,WNW,291,0.0,0.0,68,0.00,,,0.00,Wunderground v.1.15,2013-03-20 03:50:00,
2013-03-19 23:51:00,32.2,22.8,30.19,WNW,291,0.0,0.0,68,0.00,,,0.00,Wunderground v.1.15,2013-03-20 03:51:00,
2013-03-19 23:55:00,32.0,23.0,30.19,WNW,291,0.0,0.0,69,0.00,,,0.00,Wunderground v.1.15,2013-03-20 03:55:00,
2013-03-19 23:56:00,32.0,22.6,30.19,WNW,291,0.0,0.0,68,0.00,,,0.00,Wunderground v.1.15,2013-03-20 03:56:00,